PWSweather.com
Personal Weather Stations
Station Observations
DL5ARK
SonnebergDE

SonnebergDE

Lat: 50.34904861, Lon: 11.18112087

Elevation: 1214

Station Type: Selfmade

http://www.sumbarg.de

High Low Average
Temperature 77.8°F25.4°C 56.6°F13.7°C 67.0°F19.4°C
Dew Point 60.8°F16.0°C 45.2°F7.3°C 52.2°F11.2°C
Winds 14.9 mph 24.0 kmh Calm Calm 6.0 mph S9.7 kmh S
Wind Gusts 15.1 mph24.3 kmh -- 6.0 mph9.7 kmh
Humidity 73% 27% 47%
Pressure 30.20 in1022.7 mb 29.95 in1014.2 mb -
Precipitation 0.00 in0.0 mm - -
Hour Temp Dew Point Humidity Winds Wind Gusts Pressure Precip Precip Rate Daily Precip Total
12:02 AM 68.0°F20.0°C 55.8°F13.2°C 52% 5.2 mph NE8.4 kmh NE 5.3 mph8.5 kmh 29.96 in1014.6 mb 0.00 in0.0 mm 0.00 in0.0 mm 0.00 in0.0 mm
12:08 AM 67.8°F19.9°C 56.3°F13.5°C 52% 4.0 mph E6.4 kmh E 4.1 mph6.6 kmh 29.96 in1014.6 mb 0.00 in0.0 mm 0.00 in0.0 mm 0.00 in0.0 mm
12:11 AM 67.9°F19.9°C 56.2°F13.4°C 53% 8.1 mph E13.0 kmh E 8.1 mph13.0 kmh 29.96 in1014.6 mb 0.00 in0.0 mm 0.00 in0.0 mm 0.00 in0.0 mm
12:14 AM 67.4°F19.7°C 56.8°F13.8°C 53% 1.2 mph ENE1.9 kmh ENE 1.2 mph1.9 kmh 29.96 in1014.6 mb 0.00 in0.0 mm 0.00 in0.0 mm 0.00 in0.0 mm
12:17 AM 67.6°F19.8°C 56.7°F13.7°C 53% 6.4 mph SE10.3 kmh SE 6.4 mph10.3 kmh 29.96 in1014.6 mb 0.00 in0.0 mm 0.00 in0.0 mm 0.00 in0.0 mm
12:20 AM 67.6°F19.8°C 56.7°F13.7°C 53% 8.5 mph ESE13.7 kmh ESE 8.6 mph13.8 kmh 29.96 in1014.6 mb 0.00 in0.0 mm 0.00 in0.0 mm 0.00 in0.0 mm
12:23 AM 67.6°F19.8°C 57.1°F13.9°C 54% 5.2 mph E8.4 kmh E 5.3 mph8.5 kmh 29.96 in1014.6 mb 0.00 in0.0 mm 0.00 in0.0 mm 0.00 in0.0 mm
12:26 AM 67.3°F19.6°C 56.7°F13.7°C 54% 3.2 mph ENE5.1 kmh ENE 3.2 mph5.1 kmh 29.96 in1014.6 mb 0.00 in0.0 mm 0.00 in0.0 mm 0.00 in0.0 mm
12:29 AM 67.3°F19.6°C 57.2°F14.0°C 54% 6.0 mph ENE9.7 kmh ENE 6.0 mph9.7 kmh 29.96 in1014.6 mb 0.00 in0.0 mm 0.00 in0.0 mm 0.00 in0.0 mm
12:32 AM 67.1°F19.5°C 57.1°F13.9°C 54% 2.0 mph E3.2 kmh E 2.0 mph3.2 kmh 29.96 in1014.6 mb 0.00 in0.0 mm 0.00 in0.0 mm 0.00 in0.0 mm
12:35 AM 66.9°F19.4°C 56.5°F13.6°C 54% 5.2 mph NNW8.4 kmh NNW 5.3 mph8.5 kmh 29.96 in1014.6 mb 0.00 in0.0 mm 0.00 in0.0 mm 0.00 in0.0 mm
12:38 AM 67.2°F19.6°C 56.9°F13.8°C 55% 4.0 mph ENE6.4 kmh ENE 4.0 mph6.4 kmh 29.96 in1014.6 mb 0.00 in0.0 mm 0.00 in0.0 mm 0.00 in0.0 mm
12:41 AM 67.3°F19.6°C 56.6°F13.7°C 55% 9.3 mph NE15.0 kmh NE 9.3 mph15.0 kmh 29.96 in1014.6 mb 0.00 in0.0 mm 0.00 in0.0 mm 0.00 in0.0 mm
12:44 AM 66.7°F19.3°C 57.4°F14.1°C 56% 3.6 mph 5.8 kmh 3.6 mph5.8 kmh 29.96 in1014.6 mb 0.00 in0.0 mm 0.00 in0.0 mm 0.00 in0.0 mm
12:47 AM 66.9°F19.4°C 57.5°F14.2°C 56% 6.5 mph NE10.5 kmh NE 6.5 mph10.5 kmh 29.96 in1014.6 mb 0.00 in0.0 mm 0.00 in0.0 mm 0.00 in0.0 mm
12:50 AM 66.3°F19.1°C 56.8°F13.8°C 55% 2.0 mph NNW3.2 kmh NNW 2.0 mph3.2 kmh 29.96 in1014.6 mb 0.00 in0.0 mm 0.00 in0.0 mm 0.00 in0.0 mm
12:56 AM 66.2°F19.0°C 57.4°F14.1°C 57% 8.5 mph NNW13.7 kmh NNW 8.6 mph13.8 kmh 29.96 in1014.6 mb 0.00 in0.0 mm 0.00 in0.0 mm 0.00 in0.0 mm
12:59 AM 66.1°F18.9°C 57.5°F14.2°C 57% 4.8 mph ESE7.7 kmh ESE 4.9 mph7.9 kmh 29.96 in1014.6 mb 0.00 in0.0 mm 0.00 in0.0 mm 0.00 in0.0 mm
01:02 AM 66.1°F18.9°C 57.8°F14.3°C 58% 4.8 mph E7.7 kmh E 4.8 mph7.7 kmh 29.96 in1014.6 mb 0.00 in0.0 mm 0.00 in0.0 mm 0.00 in0.0 mm
01:05 AM 65.9°F18.8°C 58.2°F14.6°C 59% 8.5 mph SSE13.7 kmh SSE 8.5 mph13.7 kmh 29.96 in1014.6 mb 0.00 in0.0 mm 0.00 in0.0 mm 0.00 in0.0 mm
01:08 AM 65.8°F18.8°C 58.4°F14.7°C 59% 5.6 mph ESE9.0 kmh ESE 5.7 mph9.2 kmh 29.96 in1014.6 mb 0.00 in0.0 mm 0.00 in0.0 mm 0.00 in0.0 mm
01:11 AM 66.0°F18.9°C 58.8°F14.9°C 60% 8.9 mph NNW14.3 kmh NNW 8.9 mph14.3 kmh 29.96 in1014.6 mb 0.00 in0.0 mm 0.00 in0.0 mm 0.00 in0.0 mm
01:14 AM 65.9°F18.8°C 58.8°F14.9°C 60% 2.4 mph ENE3.9 kmh ENE 2.4 mph3.9 kmh 29.96 in1014.6 mb 0.00 in0.0 mm 0.00 in0.0 mm 0.00 in0.0 mm
01:17 AM 65.8°F18.8°C 58.7°F14.8°C 61% 4.8 mph E7.7 kmh E 4.8 mph7.7 kmh 29.96 in1014.6 mb 0.00 in0.0 mm 0.00 in0.0 mm 0.00 in0.0 mm
01:20 AM 65.8°F18.8°C 58.4°F14.7°C 61% 4.4 mph ESE7.1 kmh ESE 4.5 mph7.2 kmh 29.96 in1014.6 mb 0.00 in0.0 mm 0.00 in0.0 mm 0.00 in0.0 mm
01:23 AM 65.6°F18.7°C 58.9°F14.9°C 61% 6.0 mph E9.7 kmh E 6.0 mph9.7 kmh 29.96 in1014.6 mb 0.00 in0.0 mm 0.00 in0.0 mm 0.00 in0.0 mm
01:26 AM 65.8°F18.8°C 58.6°F14.8°C 61% 2.8 mph E4.5 kmh E 2.8 mph4.5 kmh 29.96 in1014.6 mb 0.00 in0.0 mm 0.00 in0.0 mm 0.00 in0.0 mm
01:29 AM 65.4°F18.6°C 58.7°F14.8°C 62% 3.2 mph ENE5.1 kmh ENE 3.2 mph5.1 kmh 29.96 in1014.6 mb 0.00 in0.0 mm 0.00 in0.0 mm 0.00 in0.0 mm
01:32 AM 65.6°F18.7°C 58.7°F14.8°C 63% 14.6 mph ESE23.5 kmh ESE 14.6 mph23.5 kmh 29.95 in1014.2 mb 0.00 in0.0 mm 0.00 in0.0 mm 0.00 in0.0 mm
01:35 AM 65.3°F18.5°C 59.0°F15.0°C 63% 3.6 mph ESE5.8 kmh ESE 3.6 mph5.8 kmh 29.95 in1014.2 mb 0.00 in0.0 mm 0.00 in0.0 mm 0.00 in0.0 mm
01:38 AM 65.2°F18.4°C 59.1°F15.1°C 63% 6.1 mph SE9.8 kmh SE 6.1 mph9.8 kmh 29.95 in1014.2 mb 0.00 in0.0 mm 0.00 in0.0 mm 0.00 in0.0 mm
01:41 AM 65.2°F18.4°C 59.4°F15.2°C 64% 10.5 mph SE16.9 kmh SE 10.6 mph17.1 kmh 29.95 in1014.2 mb 0.00 in0.0 mm 0.00 in0.0 mm 0.00 in0.0 mm
01:44 AM 65.2°F18.4°C 59.4°F15.2°C 65% 8.5 mph SE13.7 kmh SE 8.6 mph13.8 kmh 29.95 in1014.2 mb 0.00 in0.0 mm 0.00 in0.0 mm 0.00 in0.0 mm
01:47 AM 65.2°F18.4°C 59.4°F15.2°C 65% 7.9 mph NNW12.7 kmh NNW 8.0 mph12.9 kmh 29.95 in1014.2 mb 0.00 in0.0 mm 0.00 in0.0 mm 0.00 in0.0 mm
01:50 AM 64.9°F18.3°C 59.7°F15.4°C 65% 3.9 mph ESE6.3 kmh ESE 4.0 mph6.4 kmh 29.95 in1014.2 mb 0.00 in0.0 mm 0.00 in0.0 mm 0.00 in0.0 mm
01:56 AM 64.7°F18.2°C 59.9°F15.5°C 66% 4.0 mph SE6.4 kmh SE 4.1 mph6.6 kmh 29.95 in1014.2 mb 0.00 in0.0 mm 0.00 in0.0 mm 0.00 in0.0 mm
01:59 AM 64.7°F18.2°C 59.6°F15.3°C 65% 3.2 mph SE5.1 kmh SE 3.3 mph5.3 kmh 29.95 in1014.2 mb 0.00 in0.0 mm 0.00 in0.0 mm 0.00 in0.0 mm
02:02 AM 64.5°F18.1°C 59.5°F15.3°C 65% 2.4 mph ESE3.9 kmh ESE 2.4 mph3.9 kmh 29.96 in1014.6 mb 0.00 in0.0 mm 0.00 in0.0 mm 0.00 in0.0 mm
02:05 AM 64.5°F18.1°C 59.4°F15.2°C 65% 8.7 mph NNW14.0 kmh NNW 8.8 mph14.2 kmh 29.96 in1014.6 mb 0.00 in0.0 mm 0.00 in0.0 mm 0.00 in0.0 mm
02:08 AM 64.5°F18.1°C 59.2°F15.1°C 65% 1.6 mph ENE2.6 kmh ENE 1.6 mph2.6 kmh 29.96 in1014.6 mb 0.00 in0.0 mm 0.00 in0.0 mm 0.00 in0.0 mm
02:11 AM 64.4°F18.0°C 59.4°F15.2°C 66% 5.7 mph NE9.2 kmh NE 5.7 mph9.2 kmh 29.96 in1014.6 mb 0.00 in0.0 mm 0.00 in0.0 mm 0.00 in0.0 mm
02:14 AM 64.2°F17.9°C 59.2°F15.1°C 66% 2.8 mph NNW4.5 kmh NNW 2.8 mph4.5 kmh 29.96 in1014.6 mb 0.00 in0.0 mm 0.00 in0.0 mm 0.00 in0.0 mm
02:17 AM 63.8°F17.7°C 59.2°F15.1°C 65% 6.9 mph NNW11.1 kmh NNW 6.9 mph11.1 kmh 29.96 in1014.6 mb 0.00 in0.0 mm 0.00 in0.0 mm 0.00 in0.0 mm
02:20 AM 64.0°F17.8°C 59.4°F15.2°C 66% 2.4 mph ENE3.9 kmh ENE 2.4 mph3.9 kmh 29.96 in1014.6 mb 0.00 in0.0 mm 0.00 in0.0 mm 0.00 in0.0 mm
02:23 AM 63.8°F17.7°C 59.4°F15.2°C 66% 10.1 mph NNW16.3 kmh NNW 10.2 mph16.4 kmh 29.96 in1014.6 mb 0.00 in0.0 mm 0.00 in0.0 mm 0.00 in0.0 mm
02:26 AM 64.0°F17.8°C 59.4°F15.2°C 67% 4.0 mph SE6.4 kmh SE 4.1 mph6.6 kmh 29.96 in1014.6 mb 0.00 in0.0 mm 0.00 in0.0 mm 0.00 in0.0 mm
02:29 AM 63.6°F17.6°C 59.5°F15.3°C 67% 4.8 mph NNW7.7 kmh NNW 4.9 mph7.9 kmh 29.96 in1014.6 mb 0.00 in0.0 mm 0.00 in0.0 mm 0.00 in0.0 mm
02:32 AM 63.7°F17.6°C 59.5°F15.3°C 67% 8.1 mph ENE13.0 kmh ENE 8.2 mph13.2 kmh 29.96 in1014.6 mb 0.00 in0.0 mm 0.00 in0.0 mm 0.00 in0.0 mm
02:35 AM 63.6°F17.6°C 59.4°F15.2°C 67% 8.3 mph ESE13.4 kmh ESE 8.4 mph13.5 kmh 29.96 in1014.6 mb 0.00 in0.0 mm 0.00 in0.0 mm 0.00 in0.0 mm
02:38 AM 63.5°F17.5°C 59.2°F15.1°C 67% 8.0 mph E12.9 kmh E 8.0 mph12.9 kmh 29.96 in1014.6 mb 0.00 in0.0 mm 0.00 in0.0 mm 0.00 in0.0 mm
02:41 AM 63.4°F17.4°C 59.7°F15.4°C 67% 1.6 mph ESE2.6 kmh ESE 1.6 mph2.6 kmh 29.96 in1014.6 mb 0.00 in0.0 mm 0.00 in0.0 mm 0.00 in0.0 mm
02:44 AM 63.4°F17.4°C 59.4°F15.2°C 67% 4.0 mph E6.4 kmh E 4.0 mph6.4 kmh 29.96 in1014.6 mb 0.00 in0.0 mm 0.00 in0.0 mm 0.00 in0.0 mm
02:47 AM 63.4°F17.4°C 59.3°F15.2°C 68% 4.8 mph NNW7.7 kmh NNW 4.8 mph7.7 kmh 29.96 in1014.6 mb 0.00 in0.0 mm 0.00 in0.0 mm 0.00 in0.0 mm
02:50 AM 63.4°F17.4°C 59.5°F15.3°C 68% 2.4 mph NNW3.9 kmh NNW 2.4 mph3.9 kmh 29.96 in1014.6 mb 0.00 in0.0 mm 0.00 in0.0 mm 0.00 in0.0 mm
02:53 AM 63.1°F17.3°C 59.5°F15.3°C 68% 2.8 mph E4.5 kmh E 2.8 mph4.5 kmh 29.96 in1014.6 mb 0.00 in0.0 mm 0.00 in0.0 mm 0.00 in0.0 mm
02:56 AM 63.1°F17.3°C 59.4°F15.2°C 68% 3.6 mph ESE5.8 kmh ESE 3.6 mph5.8 kmh 29.96 in1014.6 mb 0.00 in0.0 mm 0.00 in0.0 mm 0.00 in0.0 mm
02:59 AM 63.1°F17.3°C 59.3°F15.2°C 68% 1.6 mph E2.6 kmh E 1.6 mph2.6 kmh 29.96 in1014.6 mb 0.00 in0.0 mm 0.00 in0.0 mm 0.00 in0.0 mm
03:02 AM 62.7°F17.1°C 59.7°F15.4°C 68% 4.4 mph NNE7.1 kmh NNE 4.5 mph7.2 kmh 29.96 in1014.6 mb 0.00 in0.0 mm 0.00 in0.0 mm 0.00 in0.0 mm
03:05 AM 62.5°F16.9°C 59.3°F15.2°C 68% 1.6 mph ENE2.6 kmh ENE 1.6 mph2.6 kmh 29.96 in1014.6 mb 0.00 in0.0 mm 0.00 in0.0 mm 0.00 in0.0 mm
03:08 AM 62.5°F16.9°C 59.4°F15.2°C 68% 1.6 mph E2.6 kmh E 1.6 mph2.6 kmh 29.96 in1014.6 mb 0.00 in0.0 mm 0.00 in0.0 mm 0.00 in0.0 mm
03:11 AM 62.5°F16.9°C 59.4°F15.2°C 68% 2.4 mph ENE3.9 kmh ENE 2.4 mph3.9 kmh 29.96 in1014.6 mb 0.00 in0.0 mm 0.00 in0.0 mm 0.00 in0.0 mm
03:14 AM 62.5°F16.9°C 59.1°F15.1°C 68% 2.8 mph NNW4.5 kmh NNW 2.8 mph4.5 kmh 29.95 in1014.2 mb 0.00 in0.0 mm 0.00 in0.0 mm 0.00 in0.0 mm
03:17 AM 62.3°F16.8°C 59.3°F15.2°C 68% 3.6 mph NNE5.8 kmh NNE 3.7 mph6.0 kmh 29.96 in1014.6 mb 0.00 in0.0 mm 0.00 in0.0 mm 0.00 in0.0 mm
03:23 AM 62.0°F16.7°C 59.5°F15.3°C 69% 6.4 mph ENE10.3 kmh ENE 6.4 mph10.3 kmh 29.96 in1014.6 mb 0.00 in0.0 mm 0.00 in0.0 mm 0.00 in0.0 mm
03:26 AM 61.7°F16.5°C 59.2°F15.1°C 69% 3.6 mph ESE5.8 kmh ESE 3.7 mph6.0 kmh 29.95 in1014.2 mb 0.00 in0.0 mm 0.00 in0.0 mm 0.00 in0.0 mm
03:29 AM 61.6°F16.4°C 59.4°F15.2°C 69% 6.9 mph NNW11.1 kmh NNW 6.9 mph11.1 kmh 29.95 in1014.2 mb 0.00 in0.0 mm 0.00 in0.0 mm 0.00 in0.0 mm
03:32 AM 61.6°F16.4°C 59.4°F15.2°C 70% 4.4 mph E7.1 kmh E 4.4 mph7.1 kmh 29.96 in1014.6 mb 0.00 in0.0 mm 0.00 in0.0 mm 0.00 in0.0 mm
03:35 AM 61.7°F16.5°C 59.2°F15.1°C 70% 4.0 mph ESE6.4 kmh ESE 4.0 mph6.4 kmh 29.96 in1014.6 mb 0.00 in0.0 mm 0.00 in0.0 mm 0.00 in0.0 mm
03:38 AM 61.4°F16.3°C 59.1°F15.1°C 70% 4.8 mph NE7.7 kmh NE 4.9 mph7.9 kmh 29.95 in1014.2 mb 0.00 in0.0 mm 0.00 in0.0 mm 0.00 in0.0 mm
03:41 AM 61.4°F16.3°C 59.3°F15.2°C 71% 2.4 mph SE3.9 kmh SE 2.4 mph3.9 kmh 29.96 in1014.6 mb 0.00 in0.0 mm 0.00 in0.0 mm 0.00 in0.0 mm
03:44 AM 61.1°F16.2°C 58.8°F14.9°C 70% 10.9 mph NNW17.5 kmh NNW 11.0 mph17.7 kmh 29.96 in1014.6 mb 0.00 in0.0 mm 0.00 in0.0 mm 0.00 in0.0 mm
03:47 AM 61.1°F16.2°C 59.3°F15.2°C 71% 4.0 mph NE6.4 kmh NE 4.1 mph6.6 kmh 29.96 in1014.6 mb 0.00 in0.0 mm 0.00 in0.0 mm 0.00 in0.0 mm
03:50 AM 61.0°F16.1°C 59.0°F15.0°C 71% 7.1 mph ESE11.4 kmh ESE 7.2 mph11.6 kmh 29.96 in1014.6 mb 0.00 in0.0 mm 0.00 in0.0 mm 0.00 in0.0 mm
03:53 AM 60.8°F16.0°C 58.6°F14.8°C 70% 3.2 mph NNW5.1 kmh NNW 3.2 mph5.1 kmh 29.96 in1014.6 mb 0.00 in0.0 mm 0.00 in0.0 mm 0.00 in0.0 mm
03:56 AM 60.8°F16.0°C 58.3°F14.6°C 70% 3.6 mph E5.8 kmh E 3.6 mph5.8 kmh 29.96 in1014.6 mb 0.00 in0.0 mm 0.00 in0.0 mm 0.00 in0.0 mm
04:02 AM 60.6°F15.9°C 58.7°F14.8°C 70% 4.8 mph NE7.7 kmh NE 4.9 mph7.9 kmh 29.96 in1014.6 mb 0.00 in0.0 mm 0.00 in0.0 mm 0.00 in0.0 mm
04:05 AM 60.4°F15.8°C 58.2°F14.6°C 69% 0.8 mph 1.3 kmh 0.8 mph1.3 kmh 29.96 in1014.6 mb 0.00 in0.0 mm 0.00 in0.0 mm 0.00 in0.0 mm
04:08 AM 60.5°F15.8°C 58.6°F14.8°C 71% 1.6 mph E2.6 kmh E 1.6 mph2.6 kmh 29.96 in1014.6 mb 0.00 in0.0 mm 0.00 in0.0 mm 0.00 in0.0 mm
04:11 AM 60.0°F15.6°C 58.5°F14.7°C 70% 4.8 mph WSW7.7 kmh WSW 4.8 mph7.7 kmh 29.96 in1014.6 mb 0.00 in0.0 mm 0.00 in0.0 mm 0.00 in0.0 mm
04:14 AM 60.1°F15.6°C 58.4°F14.7°C 70% 0.4 mph NNW0.6 kmh NNW 0.4 mph0.6 kmh 29.97 in1014.9 mb 0.00 in0.0 mm 0.00 in0.0 mm 0.00 in0.0 mm
04:17 AM 59.9°F15.5°C 58.5°F14.7°C 70% 4.4 mph NW7.1 kmh NW 4.5 mph7.2 kmh 29.97 in1014.9 mb 0.00 in0.0 mm 0.00 in0.0 mm 0.00 in0.0 mm
04:20 AM 60.0°F15.6°C 58.3°F14.6°C 70% 2.0 mph NNW3.2 kmh NNW 2.0 mph3.2 kmh 29.97 in1014.9 mb 0.00 in0.0 mm 0.00 in0.0 mm 0.00 in0.0 mm
04:23 AM 59.9°F15.5°C 58.9°F14.9°C 71% 1.6 mph NNW2.6 kmh NNW 1.6 mph2.6 kmh 29.97 in1014.9 mb 0.00 in0.0 mm 0.00 in0.0 mm 0.00 in0.0 mm
04:29 AM 59.7°F15.4°C 58.2°F14.6°C 70% 5.6 mph NNW9.0 kmh NNW 5.6 mph9.0 kmh 29.97 in1014.9 mb 0.00 in0.0 mm 0.00 in0.0 mm 0.00 in0.0 mm
04:32 AM 59.7°F15.4°C 58.0°F14.4°C 71% 2.0 mph NNW3.2 kmh NNW 2.0 mph3.2 kmh 29.97 in1014.9 mb 0.00 in0.0 mm 0.00 in0.0 mm 0.00 in0.0 mm
04:35 AM 59.8°F15.4°C 57.8°F14.3°C 70% 1.2 mph NW1.9 kmh NW 1.2 mph1.9 kmh 29.97 in1014.9 mb 0.00 in0.0 mm 0.00 in0.0 mm 0.00 in0.0 mm
04:38 AM 59.7°F15.4°C 58.3°F14.6°C 71% 0.8 mph NE1.3 kmh NE 0.8 mph1.3 kmh 29.97 in1014.9 mb 0.00 in0.0 mm 0.00 in0.0 mm 0.00 in0.0 mm
04:41 AM 59.3°F15.2°C 58.3°F14.6°C 71% 0.4 mph WSW0.6 kmh WSW 0.4 mph0.6 kmh 29.97 in1014.9 mb 0.00 in0.0 mm 0.00 in0.0 mm 0.00 in0.0 mm
04:44 AM 59.8°F15.4°C 58.5°F14.7°C 72% 2.0 mph NNW3.2 kmh NNW 2.0 mph3.2 kmh 29.97 in1014.9 mb 0.00 in0.0 mm 0.00 in0.0 mm 0.00 in0.0 mm
04:47 AM 59.7°F15.4°C 58.5°F14.7°C 72% Calm Calm -- 29.97 in1014.9 mb 0.00 in0.0 mm 0.00 in0.0 mm 0.00 in0.0 mm
04:50 AM 59.6°F15.3°C 58.4°F14.7°C 71% 3.6 mph W5.8 kmh W 3.7 mph6.0 kmh 29.97 in1014.9 mb 0.00 in0.0 mm 0.00 in0.0 mm 0.00 in0.0 mm
04:53 AM 59.7°F15.4°C 58.5°F14.7°C 72% 2.0 mph NNW3.2 kmh NNW 2.0 mph3.2 kmh 29.97 in1014.9 mb 0.00 in0.0 mm 0.00 in0.0 mm 0.00 in0.0 mm
04:56 AM 59.8°F15.4°C 58.3°F14.6°C 71% 2.0 mph NNW3.2 kmh NNW 2.0 mph3.2 kmh 29.97 in1014.9 mb 0.00 in0.0 mm 0.00 in0.0 mm 0.00 in0.0 mm
04:59 AM 59.6°F15.3°C 58.5°F14.7°C 72% 6.1 mph W9.8 kmh W 6.1 mph9.8 kmh 29.97 in1014.9 mb 0.00 in0.0 mm 0.00 in0.0 mm 0.00 in0.0 mm
05:02 AM 59.8°F15.4°C 58.5°F14.7°C 72% 1.6 mph W2.6 kmh W 1.6 mph2.6 kmh 29.97 in1014.9 mb 0.00 in0.0 mm 0.00 in0.0 mm 0.00 in0.0 mm
05:05 AM 60.1°F15.6°C 58.5°F14.7°C 73% 1.6 mph SSW2.6 kmh SSW 1.6 mph2.6 kmh 29.97 in1014.9 mb 0.00 in0.0 mm 0.00 in0.0 mm 0.00 in0.0 mm
05:08 AM 60.0°F15.6°C 58.5°F14.7°C 72% 4.0 mph SE6.4 kmh SE 4.1 mph6.6 kmh 29.97 in1014.9 mb 0.00 in0.0 mm 0.00 in0.0 mm 0.00 in0.0 mm
05:11 AM 60.1°F15.6°C 58.4°F14.7°C 71% 6.7 mph SE10.8 kmh SE 6.8 mph10.9 kmh 29.97 in1014.9 mb 0.00 in0.0 mm 0.00 in0.0 mm 0.00 in0.0 mm
05:14 AM 60.2°F15.7°C 59.3°F15.2°C 72% Calm Calm -- 29.97 in1014.9 mb 0.00 in0.0 mm 0.00 in0.0 mm 0.00 in0.0 mm
05:17 AM 60.5°F15.8°C 58.7°F14.8°C 69% 0.8 mph NNW1.3 kmh NNW 0.8 mph1.3 kmh 29.97 in1014.9 mb 0.00 in0.0 mm 0.00 in0.0 mm 0.00 in0.0 mm
05:20 AM 60.6°F15.9°C 59.1°F15.1°C 69% 5.2 mph SE8.4 kmh SE 5.2 mph8.4 kmh 29.97 in1014.9 mb 0.00 in0.0 mm 0.00 in0.0 mm 0.00 in0.0 mm
05:23 AM 61.3°F16.3°C 59.5°F15.3°C 69% 2.4 mph SSW3.9 kmh SSW 2.4 mph3.9 kmh 29.97 in1014.9 mb 0.00 in0.0 mm 0.00 in0.0 mm 0.00 in0.0 mm
05:26 AM 61.4°F16.3°C 59.0°F15.0°C 67% 2.0 mph 3.2 kmh 2.0 mph3.2 kmh 29.97 in1014.9 mb 0.00 in0.0 mm 0.00 in0.0 mm 0.00 in0.0 mm
05:29 AM 62.0°F16.7°C 59.6°F15.3°C 67% Calm Calm -- 29.98 in1015.2 mb 0.00 in0.0 mm 0.00 in0.0 mm 0.00 in0.0 mm
05:32 AM 61.9°F16.6°C 59.5°F15.3°C 66% 2.8 mph NNW4.5 kmh NNW 2.8 mph4.5 kmh 29.97 in1014.9 mb 0.00 in0.0 mm 0.00 in0.0 mm 0.00 in0.0 mm
05:35 AM 62.6°F17.0°C 59.3°F15.2°C 65% 4.8 mph ESE7.7 kmh ESE 4.8 mph7.7 kmh 29.98 in1015.2 mb 0.00 in0.0 mm 0.00 in0.0 mm 0.00 in0.0 mm
05:38 AM 63.2°F17.3°C 59.5°F15.3°C 66% Calm Calm -- 29.97 in1014.9 mb 0.00 in0.0 mm 0.00 in0.0 mm 0.00 in0.0 mm
05:41 AM 63.4°F17.4°C 59.3°F15.2°C 64% 3.6 mph NNW5.8 kmh NNW 3.7 mph6.0 kmh 29.98 in1015.2 mb 0.00 in0.0 mm 0.00 in0.0 mm 0.00 in0.0 mm
05:44 AM 64.2°F17.9°C 59.9°F15.5°C 64% 2.8 mph SE4.5 kmh SE 2.9 mph4.7 kmh 29.98 in1015.2 mb 0.00 in0.0 mm 0.00 in0.0 mm 0.00 in0.0 mm
05:47 AM 64.4°F18.0°C 60.4°F15.8°C 63% 3.6 mph NW5.8 kmh NW 3.6 mph5.8 kmh 29.99 in1015.6 mb 0.00 in0.0 mm 0.00 in0.0 mm 0.00 in0.0 mm
05:50 AM 65.6°F18.7°C 60.1°F15.6°C 60% 3.6 mph SSE5.8 kmh SSE 3.6 mph5.8 kmh 29.99 in1015.6 mb 0.00 in0.0 mm 0.00 in0.0 mm 0.00 in0.0 mm
05:53 AM 65.9°F18.8°C 60.2°F15.7°C 60% Calm Calm -- 29.99 in1015.6 mb 0.00 in0.0 mm 0.00 in0.0 mm 0.00 in0.0 mm
05:56 AM 66.2°F19.0°C 60.4°F15.8°C 60% 2.4 mph E3.9 kmh E 2.4 mph3.9 kmh 29.99 in1015.6 mb 0.00 in0.0 mm 0.00 in0.0 mm 0.00 in0.0 mm
05:59 AM 66.4°F19.1°C 60.0°F15.6°C 59% 5.6 mph SE9.0 kmh SE 5.7 mph9.2 kmh 29.99 in1015.6 mb 0.00 in0.0 mm 0.00 in0.0 mm 0.00 in0.0 mm
06:02 AM 66.4°F19.1°C 59.8°F15.4°C 61% 4.5 mph SE7.2 kmh SE 4.5 mph7.2 kmh 29.99 in1015.6 mb 0.00 in0.0 mm 0.00 in0.0 mm 0.00 in0.0 mm
06:05 AM 65.2°F18.4°C 59.7°F15.4°C 61% 2.0 mph NNW3.2 kmh NNW 2.0 mph3.2 kmh 29.99 in1015.6 mb 0.00 in0.0 mm 0.00 in0.0 mm 0.00 in0.0 mm
06:08 AM 66.0°F18.9°C 59.9°F15.5°C 62% 3.2 mph SE5.1 kmh SE 3.3 mph5.3 kmh 29.99 in1015.6 mb 0.00 in0.0 mm 0.00 in0.0 mm 0.00 in0.0 mm
06:11 AM 67.0°F19.4°C 60.0°F15.6°C 62% 4.0 mph ESE6.4 kmh ESE 4.0 mph6.4 kmh 29.99 in1015.6 mb 0.00 in0.0 mm 0.00 in0.0 mm 0.00 in0.0 mm
06:14 AM 67.0°F19.4°C 60.0°F15.6°C 61% 4.4 mph SE7.1 kmh SE 4.5 mph7.2 kmh 29.99 in1015.6 mb 0.00 in0.0 mm 0.00 in0.0 mm 0.00 in0.0 mm
06:17 AM 68.0°F20.0°C 59.7°F15.4°C 61% 5.6 mph NNW9.0 kmh NNW 5.7 mph9.2 kmh 29.99 in1015.6 mb 0.00 in0.0 mm 0.00 in0.0 mm 0.00 in0.0 mm
06:20 AM 67.2°F19.6°C 60.2°F15.7°C 61% 4.0 mph ESE6.4 kmh ESE 4.0 mph6.4 kmh 29.99 in1015.6 mb 0.00 in0.0 mm 0.00 in0.0 mm 0.00 in0.0 mm
06:23 AM 65.4°F18.6°C 60.1°F15.6°C 60% 5.3 mph E8.5 kmh E 5.3 mph8.5 kmh 29.99 in1015.6 mb 0.00 in0.0 mm 0.00 in0.0 mm 0.00 in0.0 mm
06:26 AM 66.4°F19.1°C 59.2°F15.1°C 58% 5.7 mph SE9.2 kmh SE 5.7 mph9.2 kmh 30.00 in1015.9 mb 0.00 in0.0 mm 0.00 in0.0 mm 0.00 in0.0 mm
06:29 AM 65.5°F18.6°C 59.7°F15.4°C 59% 3.2 mph ESE5.1 kmh ESE 3.3 mph5.3 kmh 30.00 in1015.9 mb 0.00 in0.0 mm 0.00 in0.0 mm 0.00 in0.0 mm
06:32 AM 66.9°F19.4°C 60.1°F15.6°C 60% 4.0 mph SE6.4 kmh SE 4.0 mph6.4 kmh 30.00 in1015.9 mb 0.00 in0.0 mm 0.00 in0.0 mm 0.00 in0.0 mm
06:35 AM 67.6°F19.8°C 59.4°F15.2°C 60% 6.4 mph NNW10.3 kmh NNW 6.4 mph10.3 kmh 30.00 in1015.9 mb 0.00 in0.0 mm 0.00 in0.0 mm 0.00 in0.0 mm
06:38 AM 66.7°F19.3°C 60.1°F15.6°C 62% 2.0 mph 3.2 kmh 2.0 mph3.2 kmh 30.00 in1015.9 mb 0.00 in0.0 mm 0.00 in0.0 mm 0.00 in0.0 mm
06:41 AM 67.6°F19.8°C 59.4°F15.2°C 60% 4.9 mph SE7.9 kmh SE 4.9 mph7.9 kmh 30.00 in1015.9 mb 0.00 in0.0 mm 0.00 in0.0 mm 0.00 in0.0 mm
06:44 AM 68.8°F20.4°C 60.4°F15.8°C 61% 5.3 mph SE8.5 kmh SE 5.3 mph8.5 kmh 30.00 in1015.9 mb 0.00 in0.0 mm 0.00 in0.0 mm 0.00 in0.0 mm
06:47 AM 68.8°F20.4°C 60.3°F15.7°C 60% Calm Calm -- 30.00 in1015.9 mb 0.00 in0.0 mm 0.00 in0.0 mm 0.00 in0.0 mm
06:53 AM 67.6°F19.8°C 60.1°F15.6°C 58% 2.8 mph NNW4.5 kmh NNW 2.8 mph4.5 kmh 30.00 in1015.9 mb 0.00 in0.0 mm 0.00 in0.0 mm 0.00 in0.0 mm
06:56 AM 68.8°F20.4°C 59.9°F15.5°C 58% 3.6 mph SE5.8 kmh SE 3.6 mph5.8 kmh 30.00 in1015.9 mb 0.00 in0.0 mm 0.00 in0.0 mm 0.00 in0.0 mm
06:59 AM 69.4°F20.8°C 59.6°F15.3°C 57% 2.4 mph SE3.9 kmh SE 2.4 mph3.9 kmh 30.00 in1015.9 mb 0.00 in0.0 mm 0.00 in0.0 mm 0.00 in0.0 mm
07:02 AM 69.5°F20.8°C 60.6°F15.9°C 57% 2.4 mph SE3.9 kmh SE 2.4 mph3.9 kmh 30.00 in1015.9 mb 0.00 in0.0 mm 0.00 in0.0 mm 0.00 in0.0 mm
07:05 AM 68.7°F20.4°C 59.9°F15.5°C 56% 4.4 mph NNW7.1 kmh NNW 4.4 mph7.1 kmh 30.00 in1015.9 mb 0.00 in0.0 mm 0.00 in0.0 mm 0.00 in0.0 mm
07:08 AM 70.1°F21.2°C 60.8°F16.0°C 57% 1.2 mph NE1.9 kmh NE 1.2 mph1.9 kmh 30.00 in1015.9 mb 0.00 in0.0 mm 0.00 in0.0 mm 0.00 in0.0 mm
07:11 AM 68.9°F20.5°C 60.5°F15.8°C 54% 1.2 mph ESE1.9 kmh ESE 1.2 mph1.9 kmh 30.00 in1015.9 mb 0.00 in0.0 mm 0.00 in0.0 mm 0.00 in0.0 mm
07:14 AM 66.9°F19.4°C 59.2°F15.1°C 53% 2.4 mph SE3.9 kmh SE 2.4 mph3.9 kmh 30.00 in1015.9 mb 0.00 in0.0 mm 0.00 in0.0 mm 0.00 in0.0 mm
07:17 AM 66.1°F18.9°C 58.7°F14.8°C 55% 7.5 mph NNW12.1 kmh NNW 7.6 mph12.2 kmh 30.00 in1015.9 mb 0.00 in0.0 mm 0.00 in0.0 mm 0.00 in0.0 mm
07:20 AM 65.9°F18.8°C 59.4°F15.2°C 58% 14.3 mph ESE23.0 kmh ESE 14.4 mph23.2 kmh 30.00 in1015.9 mb 0.00 in0.0 mm 0.00 in0.0 mm 0.00 in0.0 mm
07:23 AM 67.2°F19.6°C 59.1°F15.1°C 59% 6.1 mph SE9.8 kmh SE 6.1 mph9.8 kmh 30.00 in1015.9 mb 0.00 in0.0 mm 0.00 in0.0 mm 0.00 in0.0 mm
07:26 AM 67.7°F19.8°C 59.2°F15.1°C 59% 14.5 mph E23.3 kmh E 14.5 mph23.3 kmh 30.01 in1016.3 mb 0.00 in0.0 mm 0.00 in0.0 mm 0.00 in0.0 mm
07:29 AM 68.1°F20.1°C 58.0°F14.4°C 58% 10.5 mph ESE16.9 kmh ESE 10.6 mph17.1 kmh 30.02 in1016.6 mb 0.00 in0.0 mm 0.00 in0.0 mm 0.00 in0.0 mm
07:32 AM 67.3°F19.6°C 57.8°F14.3°C 58% 12.7 mph SE20.4 kmh SE 12.8 mph20.6 kmh 30.00 in1015.9 mb 0.00 in0.0 mm 0.00 in0.0 mm 0.00 in0.0 mm
07:38 AM 66.3°F19.1°C 57.8°F14.3°C 58% 8.1 mph SE13.0 kmh SE 8.2 mph13.2 kmh 30.00 in1015.9 mb 0.00 in0.0 mm 0.00 in0.0 mm 0.00 in0.0 mm
07:41 AM 64.7°F18.2°C 56.9°F13.8°C 59% 11.5 mph SE18.5 kmh SE 11.6 mph18.7 kmh 30.01 in1016.3 mb 0.00 in0.0 mm 0.00 in0.0 mm 0.00 in0.0 mm
07:44 AM 65.0°F18.3°C 57.6°F14.2°C 61% 8.4 mph SE13.5 kmh SE 8.4 mph13.5 kmh 30.00 in1015.9 mb 0.00 in0.0 mm 0.00 in0.0 mm 0.00 in0.0 mm
07:47 AM 66.5°F19.2°C 58.3°F14.6°C 62% 3.2 mph ESE5.1 kmh ESE 3.3 mph5.3 kmh 30.02 in1016.6 mb 0.00 in0.0 mm 0.00 in0.0 mm 0.00 in0.0 mm
07:50 AM 66.4°F19.1°C 58.0°F14.4°C 61% 5.3 mph SE8.5 kmh SE 5.3 mph8.5 kmh 30.02 in1016.6 mb 0.00 in0.0 mm 0.00 in0.0 mm 0.00 in0.0 mm
07:53 AM 68.2°F20.1°C 58.7°F14.8°C 61% 3.6 mph ESE5.8 kmh ESE 3.7 mph6.0 kmh 30.02 in1016.6 mb 0.00 in0.0 mm 0.00 in0.0 mm 0.00 in0.0 mm
07:56 AM 67.6°F19.8°C 59.1°F15.1°C 60% 4.0 mph NNW6.4 kmh NNW 4.1 mph6.6 kmh 30.01 in1016.3 mb 0.00 in0.0 mm 0.00 in0.0 mm 0.00 in0.0 mm
07:59 AM 67.8°F19.9°C 58.0°F14.4°C 58% 8.1 mph SE13.0 kmh SE 8.1 mph13.0 kmh 30.02 in1016.6 mb 0.00 in0.0 mm 0.00 in0.0 mm 0.00 in0.0 mm
08:02 AM 66.7°F19.3°C 57.8°F14.3°C 59% 11.5 mph SE18.5 kmh SE 11.6 mph18.7 kmh 30.01 in1016.3 mb 0.00 in0.0 mm 0.00 in0.0 mm 0.00 in0.0 mm
08:05 AM 66.8°F19.3°C 58.2°F14.6°C 60% 6.3 mph SE10.1 kmh SE 6.4 mph10.3 kmh 30.01 in1016.3 mb 0.00 in0.0 mm 0.00 in0.0 mm 0.00 in0.0 mm
08:08 AM 66.1°F18.9°C 57.3°F14.1°C 60% 6.0 mph ESE9.7 kmh ESE 6.0 mph9.7 kmh 30.01 in1016.3 mb 0.00 in0.0 mm 0.00 in0.0 mm 0.00 in0.0 mm
08:11 AM 66.3°F19.1°C 58.6°F14.8°C 61% 2.4 mph NNW3.9 kmh NNW 2.4 mph3.9 kmh 30.02 in1016.6 mb 0.00 in0.0 mm 0.00 in0.0 mm 0.00 in0.0 mm
08:14 AM 65.9°F18.8°C 58.0°F14.4°C 59% 4.4 mph E7.1 kmh E 4.4 mph7.1 kmh 30.02 in1016.6 mb 0.00 in0.0 mm 0.00 in0.0 mm 0.00 in0.0 mm
08:17 AM 67.1°F19.5°C 58.8°F14.9°C 61% 1.2 mph E1.9 kmh E 1.2 mph1.9 kmh 30.02 in1016.6 mb 0.00 in0.0 mm 0.00 in0.0 mm 0.00 in0.0 mm
08:20 AM 66.5°F19.2°C 57.7°F14.3°C 59% 13.5 mph NNW21.7 kmh NNW 13.6 mph21.9 kmh 30.02 in1016.6 mb 0.00 in0.0 mm 0.00 in0.0 mm 0.00 in0.0 mm
08:23 AM 66.1°F18.9°C 57.8°F14.3°C 59% 3.6 mph ESE5.8 kmh ESE 3.6 mph5.8 kmh 30.02 in1016.6 mb 0.00 in0.0 mm 0.00 in0.0 mm 0.00 in0.0 mm
08:26 AM 65.5°F18.6°C 57.3°F14.1°C 60% 12.0 mph ESE19.3 kmh ESE 12.1 mph19.5 kmh 30.02 in1016.6 mb 0.00 in0.0 mm 0.00 in0.0 mm 0.00 in0.0 mm
08:29 AM 65.6°F18.7°C 57.5°F14.2°C 61% 7.2 mph SE11.6 kmh SE 7.3 mph11.7 kmh 30.02 in1016.6 mb 0.00 in0.0 mm 0.00 in0.0 mm 0.00 in0.0 mm
08:32 AM 66.2°F19.0°C 58.0°F14.4°C 61% 4.8 mph SE7.7 kmh SE 4.8 mph7.7 kmh 30.01 in1016.3 mb 0.00 in0.0 mm 0.00 in0.0 mm 0.00 in0.0 mm
08:35 AM 66.3°F19.1°C 57.8°F14.3°C 61% 3.6 mph NE5.8 kmh NE 3.6 mph5.8 kmh 30.02 in1016.6 mb 0.00 in0.0 mm 0.00 in0.0 mm 0.00 in0.0 mm
08:38 AM 68.3°F20.2°C 58.4°F14.7°C 62% 9.3 mph SE15.0 kmh SE 9.3 mph15.0 kmh 30.02 in1016.6 mb 0.00 in0.0 mm 0.00 in0.0 mm 0.00 in0.0 mm
08:44 AM 67.0°F19.4°C 58.1°F14.5°C 60% 6.8 mph ESE10.9 kmh ESE 6.8 mph10.9 kmh 30.02 in1016.6 mb 0.00 in0.0 mm 0.00 in0.0 mm 0.00 in0.0 mm
08:47 AM 65.8°F18.8°C 57.0°F13.9°C 59% 8.9 mph ESE14.3 kmh ESE 8.9 mph14.3 kmh 30.02 in1016.6 mb 0.00 in0.0 mm 0.00 in0.0 mm 0.00 in0.0 mm
08:50 AM 66.4°F19.1°C 57.6°F14.2°C 60% 6.5 mph SE10.5 kmh SE 6.5 mph10.5 kmh 30.02 in1016.6 mb 0.00 in0.0 mm 0.00 in0.0 mm 0.00 in0.0 mm
08:53 AM 65.4°F18.6°C 58.2°F14.6°C 60% 6.1 mph ESE9.8 kmh ESE 6.1 mph9.8 kmh 30.02 in1016.6 mb 0.00 in0.0 mm 0.00 in0.0 mm 0.00 in0.0 mm
08:56 AM 65.4°F18.6°C 58.2°F14.6°C 60% 2.8 mph E4.5 kmh E 2.9 mph4.7 kmh 30.03 in1016.9 mb 0.00 in0.0 mm 0.00 in0.0 mm 0.00 in0.0 mm
08:59 AM 65.3°F18.5°C 56.8°F13.8°C 58% 3.2 mph E5.1 kmh E 3.3 mph5.3 kmh 30.02 in1016.6 mb 0.00 in0.0 mm 0.00 in0.0 mm 0.00 in0.0 mm
09:02 AM 65.1°F18.4°C 57.3°F14.1°C 58% 6.9 mph ESE11.1 kmh ESE 6.9 mph11.1 kmh 30.03 in1016.9 mb 0.00 in0.0 mm 0.00 in0.0 mm 0.00 in0.0 mm
09:05 AM 64.4°F18.0°C 57.6°F14.2°C 59% 7.2 mph SE11.6 kmh SE 7.2 mph11.6 kmh 30.03 in1016.9 mb 0.00 in0.0 mm 0.00 in0.0 mm 0.00 in0.0 mm
09:08 AM 64.6°F18.1°C 57.6°F14.2°C 59% 6.9 mph SE11.1 kmh SE 6.9 mph11.1 kmh 30.03 in1016.9 mb 0.00 in0.0 mm 0.00 in0.0 mm 0.00 in0.0 mm
09:14 AM 66.0°F18.9°C 57.6°F14.2°C 60% 4.4 mph ESE7.1 kmh ESE 4.4 mph7.1 kmh 30.03 in1016.9 mb 0.00 in0.0 mm 0.00 in0.0 mm 0.00 in0.0 mm
09:17 AM 66.1°F18.9°C 57.7°F14.3°C 60% 1.6 mph ESE2.6 kmh ESE 1.6 mph2.6 kmh 30.03 in1016.9 mb 0.00 in0.0 mm 0.00 in0.0 mm 0.00 in0.0 mm
09:20 AM 66.3°F19.1°C 57.2°F14.0°C 58% 4.8 mph NNW7.7 kmh NNW 4.9 mph7.9 kmh 30.03 in1016.9 mb 0.00 in0.0 mm 0.00 in0.0 mm 0.00 in0.0 mm
09:23 AM 66.1°F18.9°C 56.8°F13.8°C 57% 3.2 mph NE5.1 kmh NE 3.2 mph5.1 kmh 30.03 in1016.9 mb 0.00 in0.0 mm 0.00 in0.0 mm 0.00 in0.0 mm
09:26 AM 65.9°F18.8°C 56.7°F13.7°C 57% 6.8 mph NNW10.9 kmh NNW 6.8 mph10.9 kmh 30.03 in1016.9 mb 0.00 in0.0 mm 0.00 in0.0 mm 0.00 in0.0 mm
09:29 AM 66.2°F19.0°C 56.3°F13.5°C 56% 2.8 mph NE4.5 kmh NE 2.8 mph4.5 kmh 30.03 in1016.9 mb 0.00 in0.0 mm 0.00 in0.0 mm 0.00 in0.0 mm
09:35 AM 66.9°F19.4°C 55.5°F13.1°C 55% 6.0 mph NNW9.7 kmh NNW 6.0 mph9.7 kmh 30.03 in1016.9 mb 0.00 in0.0 mm 0.00 in0.0 mm 0.00 in0.0 mm
09:38 AM 67.0°F19.4°C 54.2°F12.3°C 53% 6.8 mph ESE10.9 kmh ESE 6.8 mph10.9 kmh 30.02 in1016.6 mb 0.00 in0.0 mm 0.00 in0.0 mm 0.00 in0.0 mm
09:41 AM 67.9°F19.9°C 55.4°F13.0°C 55% 12.1 mph NNW19.5 kmh NNW 12.3 mph19.8 kmh 30.02 in1016.6 mb 0.00 in0.0 mm 0.00 in0.0 mm 0.00 in0.0 mm
09:44 AM 68.0°F20.0°C 55.3°F12.9°C 54% 10.9 mph ESE17.5 kmh ESE 11.0 mph17.7 kmh 30.20 in1022.7 mb 0.00 in0.0 mm 0.00 in0.0 mm 0.00 in0.0 mm
09:47 AM 68.1°F20.1°C 55.1°F12.8°C 53% 8.4 mph NNW13.5 kmh NNW 8.4 mph13.5 kmh 30.02 in1016.6 mb 0.00 in0.0 mm 0.00 in0.0 mm 0.00 in0.0 mm
09:50 AM 68.8°F20.4°C 55.4°F13.0°C 54% 6.4 mph NNW10.3 kmh NNW 6.4 mph10.3 kmh 30.02 in1016.6 mb 0.00 in0.0 mm 0.00 in0.0 mm 0.00 in0.0 mm
09:53 AM 68.8°F20.4°C 57.0°F13.9°C 55% 0.8 mph NNW1.3 kmh NNW 0.8 mph1.3 kmh 30.02 in1016.6 mb 0.00 in0.0 mm 0.00 in0.0 mm 0.00 in0.0 mm
09:56 AM 68.0°F20.0°C 56.0°F13.3°C 52% 7.7 mph NNE12.4 kmh NNE 7.7 mph12.4 kmh 30.03 in1016.9 mb 0.00 in0.0 mm 0.00 in0.0 mm 0.00 in0.0 mm
09:59 AM 68.9°F20.5°C 56.0°F13.3°C 52% 8.5 mph ESE13.7 kmh ESE 8.6 mph13.8 kmh 30.03 in1016.9 mb 0.00 in0.0 mm 0.00 in0.0 mm 0.00 in0.0 mm
10:02 AM 69.2°F20.7°C 56.2°F13.4°C 51% 1.6 mph NE2.6 kmh NE 1.6 mph2.6 kmh 30.03 in1016.9 mb 0.00 in0.0 mm 0.00 in0.0 mm 0.00 in0.0 mm
10:05 AM 69.8°F21.0°C 52.3°F11.3°C 45% 11.1 mph SE17.9 kmh SE 11.1 mph17.9 kmh 30.03 in1016.9 mb 0.00 in0.0 mm 0.00 in0.0 mm 0.00 in0.0 mm
10:08 AM 69.2°F20.7°C 52.2°F11.2°C 44% 7.9 mph SE12.7 kmh SE 8.0 mph12.9 kmh 30.03 in1016.9 mb 0.00 in0.0 mm 0.00 in0.0 mm 0.00 in0.0 mm
10:11 AM 70.1°F21.2°C 52.0°F11.1°C 44% 9.3 mph NNW15.0 kmh NNW 9.4 mph15.1 kmh 30.03 in1016.9 mb 0.00 in0.0 mm 0.00 in0.0 mm 0.00 in0.0 mm
10:14 AM 69.6°F20.9°C 51.1°F10.6°C 42% 7.3 mph SE11.7 kmh SE 7.3 mph11.7 kmh 30.03 in1016.9 mb 0.00 in0.0 mm 0.00 in0.0 mm 0.00 in0.0 mm
10:17 AM 70.3°F21.3°C 52.3°F11.3°C 44% 5.2 mph NNW8.4 kmh NNW 5.2 mph8.4 kmh 30.03 in1016.9 mb 0.00 in0.0 mm 0.00 in0.0 mm 0.00 in0.0 mm
10:20 AM 70.4°F21.3°C 52.1°F11.2°C 42% 13.2 mph SE21.2 kmh SE 13.3 mph21.4 kmh 30.02 in1016.6 mb 0.00 in0.0 mm 0.00 in0.0 mm 0.00 in0.0 mm
10:23 AM 70.5°F21.4°C 52.2°F11.2°C 42% 10.0 mph NNW16.1 kmh NNW 10.0 mph16.1 kmh 30.02 in1016.6 mb 0.00 in0.0 mm 0.00 in0.0 mm 0.00 in0.0 mm
10:26 AM 70.1°F21.2°C 51.7°F10.9°C 41% 4.8 mph SSE7.7 kmh SSE 4.8 mph7.7 kmh 30.02 in1016.6 mb 0.00 in0.0 mm 0.00 in0.0 mm 0.00 in0.0 mm
10:29 AM 69.8°F21.0°C 50.8°F10.4°C 40% 11.7 mph ESE18.8 kmh ESE 11.9 mph19.2 kmh 30.02 in1016.6 mb 0.00 in0.0 mm 0.00 in0.0 mm 0.00 in0.0 mm
10:32 AM 70.4°F21.3°C 51.1°F10.6°C 40% 9.7 mph SE15.6 kmh SE 9.8 mph15.8 kmh 30.02 in1016.6 mb 0.00 in0.0 mm 0.00 in0.0 mm 0.00 in0.0 mm
10:35 AM 70.9°F21.6°C 50.8°F10.4°C 39% 14.6 mph ESE23.5 kmh ESE 14.7 mph23.7 kmh 30.03 in1016.9 mb 0.00 in0.0 mm 0.00 in0.0 mm 0.00 in0.0 mm
10:41 AM 70.7°F21.5°C 48.7°F9.3°C 37% 9.5 mph NNW15.3 kmh NNW 9.5 mph15.3 kmh 30.03 in1016.9 mb 0.00 in0.0 mm 0.00 in0.0 mm 0.00 in0.0 mm
10:44 AM 70.3°F21.3°C 48.1°F8.9°C 35% 14.9 mph NNW24.0 kmh NNW 15.1 mph24.3 kmh 30.03 in1016.9 mb 0.00 in0.0 mm 0.00 in0.0 mm 0.00 in0.0 mm
10:47 AM 69.8°F21.0°C 50.4°F10.2°C 37% 8.5 mph NNW13.7 kmh NNW 8.6 mph13.8 kmh 30.03 in1016.9 mb 0.00 in0.0 mm 0.00 in0.0 mm 0.00 in0.0 mm
10:50 AM 70.6°F21.4°C 49.2°F9.6°C 35% 6.9 mph SE11.1 kmh SE 6.9 mph11.1 kmh 30.03 in1016.9 mb 0.00 in0.0 mm 0.00 in0.0 mm 0.00 in0.0 mm
10:53 AM 70.5°F21.4°C 50.1°F10.1°C 36% 3.2 mph NE5.1 kmh NE 3.2 mph5.1 kmh 30.03 in1016.9 mb 0.00 in0.0 mm 0.00 in0.0 mm 0.00 in0.0 mm
10:56 AM 70.7°F21.5°C 49.9°F9.9°C 35% 7.9 mph SE12.7 kmh SE 8.0 mph12.9 kmh 30.03 in1016.9 mb 0.00 in0.0 mm 0.00 in0.0 mm 0.00 in0.0 mm
10:59 AM 70.3°F21.3°C 49.4°F9.7°C 35% 6.1 mph NNW9.8 kmh NNW 6.1 mph9.8 kmh 30.03 in1016.9 mb 0.00 in0.0 mm 0.00 in0.0 mm 0.00 in0.0 mm
11:02 AM 70.5°F21.4°C 49.9°F9.9°C 36% 14.9 mph SE24.0 kmh SE 15.1 mph24.3 kmh 30.03 in1016.9 mb 0.00 in0.0 mm 0.00 in0.0 mm 0.00 in0.0 mm
11:05 AM 71.0°F21.7°C 48.5°F9.2°C 34% 12.5 mph ESE20.1 kmh ESE 12.6 mph20.3 kmh 30.03 in1016.9 mb 0.00 in0.0 mm 0.00 in0.0 mm 0.00 in0.0 mm
11:08 AM 70.5°F21.4°C 46.8°F8.2°C 32% 11.1 mph NNW17.9 kmh NNW 11.1 mph17.9 kmh 30.03 in1016.9 mb 0.00 in0.0 mm 0.00 in0.0 mm 0.00 in0.0 mm
11:11 AM 70.8°F21.6°C 46.9°F8.3°C 32% 7.3 mph SE11.7 kmh SE 7.3 mph11.7 kmh 30.03 in1016.9 mb 0.00 in0.0 mm 0.00 in0.0 mm 0.00 in0.0 mm
11:17 AM 71.0°F21.7°C 47.4°F8.6°C 32% 3.6 mph NNW5.8 kmh NNW 3.7 mph6.0 kmh 30.03 in1016.9 mb 0.00 in0.0 mm 0.00 in0.0 mm 0.00 in0.0 mm
11:20 AM 71.3°F21.8°C 46.1°F7.8°C 30% 9.2 mph SE14.8 kmh SE 9.2 mph14.8 kmh 30.20 in1022.7 mb 0.00 in0.0 mm 0.00 in0.0 mm 0.00 in0.0 mm
11:23 AM 71.4°F21.9°C 46.0°F7.8°C 30% 6.0 mph ESE9.7 kmh ESE 6.1 mph9.8 kmh 30.03 in1016.9 mb 0.00 in0.0 mm 0.00 in0.0 mm 0.00 in0.0 mm
11:26 AM 71.5°F21.9°C 47.8°F8.8°C 31% 6.8 mph SE10.9 kmh SE 6.9 mph11.1 kmh 30.03 in1016.9 mb 0.00 in0.0 mm 0.00 in0.0 mm 0.00 in0.0 mm
11:29 AM 72.3°F22.4°C 49.2°F9.6°C 33% 9.7 mph NNW15.6 kmh NNW 9.8 mph15.8 kmh 30.03 in1016.9 mb 0.00 in0.0 mm 0.00 in0.0 mm 0.00 in0.0 mm
11:32 AM 72.1°F22.3°C 48.2°F9.0°C 32% 4.4 mph ESE7.1 kmh ESE 4.5 mph7.2 kmh 30.03 in1016.9 mb 0.00 in0.0 mm 0.00 in0.0 mm 0.00 in0.0 mm
11:35 AM 71.7°F22.1°C 48.8°F9.3°C 32% 11.3 mph SE18.2 kmh SE 11.3 mph18.2 kmh 30.02 in1016.6 mb 0.00 in0.0 mm 0.00 in0.0 mm 0.00 in0.0 mm
11:38 AM 72.6°F22.6°C 49.3°F9.6°C 33% 4.8 mph SE7.7 kmh SE 4.8 mph7.7 kmh 30.02 in1016.6 mb 0.00 in0.0 mm 0.00 in0.0 mm 0.00 in0.0 mm
11:41 AM 72.3°F22.4°C 48.3°F9.1°C 31% 3.2 mph NNW5.1 kmh NNW 3.3 mph5.3 kmh 30.02 in1016.6 mb 0.00 in0.0 mm 0.00 in0.0 mm 0.00 in0.0 mm
11:44 AM 72.4°F22.4°C 47.5°F8.6°C 30% 8.9 mph NNW14.3 kmh NNW 8.9 mph14.3 kmh 30.03 in1016.9 mb 0.00 in0.0 mm 0.00 in0.0 mm 0.00 in0.0 mm
11:47 AM 72.1°F22.3°C 47.4°F8.6°C 30% 3.2 mph SE5.1 kmh SE 3.3 mph5.3 kmh 30.02 in1016.6 mb 0.00 in0.0 mm 0.00 in0.0 mm 0.00 in0.0 mm
11:50 AM 72.2°F22.3°C 47.2°F8.4°C 30% 9.3 mph NNW15.0 kmh NNW 9.3 mph15.0 kmh 30.02 in1016.6 mb 0.00 in0.0 mm 0.00 in0.0 mm 0.00 in0.0 mm
11:53 AM 71.6°F22.0°C 46.3°F7.9°C 29% 10.5 mph NNW16.9 kmh NNW 10.6 mph17.1 kmh 30.03 in1016.9 mb 0.00 in0.0 mm 0.00 in0.0 mm 0.00 in0.0 mm
11:56 AM 71.9°F22.2°C 46.9°F8.3°C 30% 6.9 mph SE11.1 kmh SE 6.9 mph11.1 kmh 30.02 in1016.6 mb 0.00 in0.0 mm 0.00 in0.0 mm 0.00 in0.0 mm
11:59 AM 72.5°F22.5°C 47.7°F8.7°C 30% 11.3 mph SE18.2 kmh SE 11.3 mph18.2 kmh 30.03 in1016.9 mb 0.00 in0.0 mm 0.00 in0.0 mm 0.00 in0.0 mm
12:02 PM 73.5°F23.1°C 48.6°F9.2°C 31% 9.3 mph E15.0 kmh E 9.4 mph15.1 kmh 30.03 in1016.9 mb 0.00 in0.0 mm 0.00 in0.0 mm 0.00 in0.0 mm
12:05 PM 72.2°F22.3°C 46.4°F8.0°C 28% 6.1 mph E9.8 kmh E 6.1 mph9.8 kmh 30.03 in1016.9 mb 0.00 in0.0 mm 0.00 in0.0 mm 0.00 in0.0 mm
12:08 PM 72.3°F22.4°C 48.0°F8.9°C 29% 2.8 mph E4.5 kmh E 2.9 mph4.7 kmh 30.02 in1016.6 mb 0.00 in0.0 mm 0.00 in0.0 mm 0.00 in0.0 mm
12:11 PM 72.6°F22.6°C 48.5°F9.2°C 30% 5.2 mph SE8.4 kmh SE 5.2 mph8.4 kmh 30.02 in1016.6 mb 0.00 in0.0 mm 0.00 in0.0 mm 0.00 in0.0 mm
12:14 PM 72.6°F22.6°C 48.0°F8.9°C 30% 7.3 mph ESE11.7 kmh ESE 7.3 mph11.7 kmh 30.02 in1016.6 mb 0.00 in0.0 mm 0.00 in0.0 mm 0.00 in0.0 mm
12:17 PM 73.0°F22.8°C 49.0°F9.4°C 30% 8.5 mph ESE13.7 kmh ESE 8.5 mph13.7 kmh 30.02 in1016.6 mb 0.00 in0.0 mm 0.00 in0.0 mm 0.00 in0.0 mm
12:20 PM 72.7°F22.6°C 47.7°F8.7°C 29% 13.9 mph NNW22.4 kmh NNW 14.0 mph22.5 kmh 30.02 in1016.6 mb 0.00 in0.0 mm 0.00 in0.0 mm 0.00 in0.0 mm
12:23 PM 72.5°F22.5°C 47.9°F8.8°C 30% 7.3 mph SE11.7 kmh SE 7.3 mph11.7 kmh 30.02 in1016.6 mb 0.00 in0.0 mm 0.00 in0.0 mm 0.00 in0.0 mm
12:26 PM 72.5°F22.5°C 47.4°F8.6°C 30% 8.8 mph SE14.2 kmh SE 8.8 mph14.2 kmh 30.02 in1016.6 mb 0.00 in0.0 mm 0.00 in0.0 mm 0.00 in0.0 mm
12:32 PM 72.5°F22.5°C 47.7°F8.7°C 30% 7.3 mph SE11.7 kmh SE 7.3 mph11.7 kmh 30.01 in1016.3 mb 0.00 in0.0 mm 0.00 in0.0 mm 0.00 in0.0 mm
12:35 PM 73.6°F23.1°C 49.6°F9.8°C 31% 7.3 mph NE11.7 kmh NE 7.3 mph11.7 kmh 30.02 in1016.6 mb 0.00 in0.0 mm 0.00 in0.0 mm 0.00 in0.0 mm
12:38 PM 73.3°F22.9°C 48.1°F8.9°C 29% 12.3 mph NNW19.8 kmh NNW 12.4 mph20.0 kmh 30.02 in1016.6 mb 0.00 in0.0 mm 0.00 in0.0 mm 0.00 in0.0 mm
12:41 PM 74.3°F23.5°C 50.0°F10.0°C 30% 2.8 mph E4.5 kmh E 2.8 mph4.5 kmh 30.02 in1016.6 mb 0.00 in0.0 mm 0.00 in0.0 mm 0.00 in0.0 mm
12:44 PM 73.2°F22.9°C 48.9°F9.4°C 30% 9.3 mph ESE15.0 kmh ESE 9.4 mph15.1 kmh 30.02 in1016.6 mb 0.00 in0.0 mm 0.00 in0.0 mm 0.00 in0.0 mm
12:47 PM 73.4°F23.0°C 48.3°F9.1°C 29% 13.7 mph ESE22.0 kmh ESE 13.9 mph22.4 kmh 30.02 in1016.6 mb 0.00 in0.0 mm 0.00 in0.0 mm 0.00 in0.0 mm
12:50 PM 73.2°F22.9°C 48.0°F8.9°C 30% 6.5 mph ESE10.5 kmh ESE 6.5 mph10.5 kmh 30.02 in1016.6 mb 0.00 in0.0 mm 0.00 in0.0 mm 0.00 in0.0 mm
12:53 PM 73.5°F23.1°C 48.7°F9.3°C 30% 0.8 mph SE1.3 kmh SE 0.8 mph1.3 kmh 30.01 in1016.3 mb 0.00 in0.0 mm 0.00 in0.0 mm 0.00 in0.0 mm
12:59 PM 74.2°F23.4°C 50.7°F10.4°C 30% 2.8 mph SE4.5 kmh SE 2.8 mph4.5 kmh 30.02 in1016.6 mb 0.00 in0.0 mm 0.00 in0.0 mm 0.00 in0.0 mm
01:02 PM 74.8°F23.8°C 52.1°F11.2°C 31% 5.2 mph ESE8.4 kmh ESE 5.3 mph8.5 kmh 30.02 in1016.6 mb 0.00 in0.0 mm 0.00 in0.0 mm 0.00 in0.0 mm
01:05 PM 74.2°F23.4°C 49.7°F9.8°C 28% 7.3 mph SE11.7 kmh SE 7.3 mph11.7 kmh 30.02 in1016.6 mb 0.00 in0.0 mm 0.00 in0.0 mm 0.00 in0.0 mm
01:08 PM 73.7°F23.2°C 48.8°F9.3°C 28% 10.9 mph NNW17.5 kmh NNW 10.9 mph17.5 kmh 30.02 in1016.6 mb 0.00 in0.0 mm 0.00 in0.0 mm 0.00 in0.0 mm
01:11 PM 73.6°F23.1°C 48.4°F9.1°C 28% 12.9 mph SE20.8 kmh SE 13.0 mph20.9 kmh 30.01 in1016.3 mb 0.00 in0.0 mm 0.00 in0.0 mm 0.00 in0.0 mm
01:14 PM 74.0°F23.3°C 49.0°F9.4°C 29% 7.3 mph NNW11.7 kmh NNW 7.3 mph11.7 kmh 30.02 in1016.6 mb 0.00 in0.0 mm 0.00 in0.0 mm 0.00 in0.0 mm
01:17 PM 73.7°F23.2°C 47.5°F8.6°C 28% 13.7 mph SE22.0 kmh SE 13.9 mph22.4 kmh 30.02 in1016.6 mb 0.00 in0.0 mm 0.00 in0.0 mm 0.00 in0.0 mm
01:20 PM 73.9°F23.3°C 48.5°F9.2°C 29% 9.5 mph NNW15.3 kmh NNW 9.5 mph15.3 kmh 30.02 in1016.6 mb 0.00 in0.0 mm 0.00 in0.0 mm 0.00 in0.0 mm
01:23 PM 73.2°F22.9°C 48.1°F8.9°C 28% 9.9 mph NNW15.9 kmh NNW 9.9 mph15.9 kmh 30.02 in1016.6 mb 0.00 in0.0 mm 0.00 in0.0 mm 0.00 in0.0 mm
01:26 PM 73.7°F23.2°C 49.2°F9.6°C 30% 5.5 mph NNW8.9 kmh NNW 5.6 mph9.0 kmh 30.02 in1016.6 mb 0.00 in0.0 mm 0.00 in0.0 mm 0.00 in0.0 mm
01:29 PM 74.4°F23.6°C 48.6°F9.2°C 29% 4.8 mph SE7.7 kmh SE 4.8 mph7.7 kmh 30.02 in1016.6 mb 0.00 in0.0 mm 0.00 in0.0 mm 0.00 in0.0 mm
01:35 PM 74.2°F23.4°C 49.2°F9.6°C 29% 10.5 mph NNW16.9 kmh NNW 10.6 mph17.1 kmh 30.02 in1016.6 mb 0.00 in0.0 mm 0.00 in0.0 mm 0.00 in0.0 mm
01:38 PM 74.5°F23.6°C 49.5°F9.7°C 30% 6.4 mph ESE10.3 kmh ESE 6.5 mph10.5 kmh 30.02 in1016.6 mb 0.00 in0.0 mm 0.00 in0.0 mm 0.00 in0.0 mm
01:41 PM 73.9°F23.3°C 48.7°F9.3°C 28% 6.0 mph SE9.7 kmh SE 6.1 mph9.8 kmh 30.02 in1016.6 mb 0.00 in0.0 mm 0.00 in0.0 mm 0.00 in0.0 mm
01:44 PM 73.6°F23.1°C 47.9°F8.8°C 28% 8.7 mph SE14.0 kmh SE 8.8 mph14.2 kmh 30.02 in1016.6 mb 0.00 in0.0 mm 0.00 in0.0 mm 0.00 in0.0 mm
01:47 PM 73.6°F23.1°C 47.9°F8.8°C 29% 12.1 mph SE19.5 kmh SE 12.1 mph19.5 kmh 30.03 in1016.9 mb 0.00 in0.0 mm 0.00 in0.0 mm 0.00 in0.0 mm
01:50 PM 74.1°F23.4°C 49.1°F9.5°C 29% 6.7 mph E10.8 kmh E 6.8 mph10.9 kmh 30.02 in1016.6 mb 0.00 in0.0 mm 0.00 in0.0 mm 0.00 in0.0 mm
01:53 PM 74.1°F23.4°C 48.0°F8.9°C 28% 6.7 mph ESE10.8 kmh ESE 6.8 mph10.9 kmh 30.02 in1016.6 mb 0.00 in0.0 mm 0.00 in0.0 mm 0.00 in0.0 mm
01:56 PM 73.6°F23.1°C 47.8°F8.8°C 28% 4.4 mph SE7.1 kmh SE 4.4 mph7.1 kmh 30.02 in1016.6 mb 0.00 in0.0 mm 0.00 in0.0 mm 0.00 in0.0 mm
01:59 PM 74.0°F23.3°C 48.8°F9.3°C 29% 12.9 mph NNW20.8 kmh NNW 12.9 mph20.8 kmh 30.02 in1016.6 mb 0.00 in0.0 mm 0.00 in0.0 mm 0.00 in0.0 mm
02:02 PM 74.0°F23.3°C 48.6°F9.2°C 29% 7.7 mph SE12.4 kmh SE 7.7 mph12.4 kmh 30.01 in1016.3 mb 0.00 in0.0 mm 0.00 in0.0 mm 0.00 in0.0 mm
02:08 PM 74.5°F23.6°C 50.1°F10.1°C 30% 2.0 mph NNW3.2 kmh NNW 2.0 mph3.2 kmh 30.01 in1016.3 mb 0.00 in0.0 mm 0.00 in0.0 mm 0.00 in0.0 mm
02:11 PM 74.2°F23.4°C 46.9°F8.3°C 27% 8.1 mph NNW13.0 kmh NNW 8.2 mph13.2 kmh 30.02 in1016.6 mb 0.00 in0.0 mm 0.00 in0.0 mm 0.00 in0.0 mm
02:14 PM 74.0°F23.3°C 48.8°F9.3°C 29% 8.4 mph SE13.5 kmh SE 8.5 mph13.7 kmh 30.02 in1016.6 mb 0.00 in0.0 mm 0.00 in0.0 mm 0.00 in0.0 mm
02:17 PM 74.4°F23.6°C 48.5°F9.2°C 29% 2.0 mph ESE3.2 kmh ESE 2.0 mph3.2 kmh 30.01 in1016.3 mb 0.00 in0.0 mm 0.00 in0.0 mm 0.00 in0.0 mm
02:20 PM 74.4°F23.6°C 49.7°F9.8°C 29% 11.1 mph SE17.9 kmh SE 11.1 mph17.9 kmh 30.01 in1016.3 mb 0.00 in0.0 mm 0.00 in0.0 mm 0.00 in0.0 mm
02:23 PM 74.5°F23.6°C 48.7°F9.3°C 29% 9.6 mph ESE15.4 kmh ESE 9.6 mph15.4 kmh 30.01 in1016.3 mb 0.00 in0.0 mm 0.00 in0.0 mm 0.00 in0.0 mm
02:26 PM 74.5°F23.6°C 48.2°F9.0°C 29% 9.7 mph SE15.6 kmh SE 9.8 mph15.8 kmh 30.02 in1016.6 mb 0.00 in0.0 mm 0.00 in0.0 mm 0.00 in0.0 mm
02:29 PM 74.6°F23.7°C 48.6°F9.2°C 28% 10.1 mph NNW16.3 kmh NNW 10.1 mph16.3 kmh 30.02 in1016.6 mb 0.00 in0.0 mm 0.00 in0.0 mm 0.00 in0.0 mm
02:32 PM 74.4°F23.6°C 47.3°F8.5°C 28% 4.8 mph NNW7.7 kmh NNW 4.8 mph7.7 kmh 30.01 in1016.3 mb 0.00 in0.0 mm 0.00 in0.0 mm 0.00 in0.0 mm
02:35 PM 74.9°F23.8°C 48.5°F9.2°C 28% 7.5 mph ESE12.1 kmh ESE 7.6 mph12.2 kmh 30.02 in1016.6 mb 0.00 in0.0 mm 0.00 in0.0 mm 0.00 in0.0 mm
02:38 PM 75.2°F24.0°C 49.6°F9.8°C 28% 2.0 mph NNW3.2 kmh NNW 2.0 mph3.2 kmh 30.01 in1016.3 mb 0.00 in0.0 mm 0.00 in0.0 mm 0.00 in0.0 mm
02:41 PM 75.1°F23.9°C 49.5°F9.7°C 28% 8.7 mph SE14.0 kmh SE 8.8 mph14.2 kmh 30.01 in1016.3 mb 0.00 in0.0 mm 0.00 in0.0 mm 0.00 in0.0 mm
02:44 PM 75.0°F23.9°C 48.6°F9.2°C 28% 11.1 mph NNW17.9 kmh NNW 11.1 mph17.9 kmh 30.01 in1016.3 mb 0.00 in0.0 mm 0.00 in0.0 mm 0.00 in0.0 mm
02:47 PM 74.6°F23.7°C 48.4°F9.1°C 28% 6.8 mph SE10.9 kmh SE 6.8 mph10.9 kmh 30.02 in1016.6 mb 0.00 in0.0 mm 0.00 in0.0 mm 0.00 in0.0 mm
02:50 PM 74.9°F23.8°C 49.7°F9.8°C 29% 4.0 mph NE6.4 kmh NE 4.0 mph6.4 kmh 30.01 in1016.3 mb 0.00 in0.0 mm 0.00 in0.0 mm 0.00 in0.0 mm
02:53 PM 75.2°F24.0°C 49.4°F9.7°C 29% 7.7 mph SE12.4 kmh SE 7.7 mph12.4 kmh 30.01 in1016.3 mb 0.00 in0.0 mm 0.00 in0.0 mm 0.00 in0.0 mm
02:56 PM 74.3°F23.5°C 48.3°F9.1°C 28% 6.1 mph SE9.8 kmh SE 6.1 mph9.8 kmh 30.01 in1016.3 mb 0.00 in0.0 mm 0.00 in0.0 mm 0.00 in0.0 mm
02:59 PM 74.1°F23.4°C 47.4°F8.6°C 28% 7.7 mph NNW12.4 kmh NNW 7.7 mph12.4 kmh 30.01 in1016.3 mb 0.00 in0.0 mm 0.00 in0.0 mm 0.00 in0.0 mm
03:02 PM 73.7°F23.2°C 47.7°F8.7°C 29% 7.5 mph SE12.1 kmh SE 7.6 mph12.2 kmh 30.00 in1015.9 mb 0.00 in0.0 mm 0.00 in0.0 mm 0.00 in0.0 mm
03:05 PM 75.3°F24.1°C 49.8°F9.9°C 31% 11.1 mph NNW17.9 kmh NNW 11.2 mph18.0 kmh 30.01 in1016.3 mb 0.00 in0.0 mm 0.00 in0.0 mm 0.00 in0.0 mm
03:08 PM 74.4°F23.6°C 49.0°F9.4°C 29% 11.3 mph ESE18.2 kmh ESE 11.3 mph18.2 kmh 30.01 in1016.3 mb 0.00 in0.0 mm 0.00 in0.0 mm 0.00 in0.0 mm
03:11 PM 74.1°F23.4°C 48.2°F9.0°C 29% 4.8 mph SE7.7 kmh SE 4.9 mph7.9 kmh 30.01 in1016.3 mb 0.00 in0.0 mm 0.00 in0.0 mm 0.00 in0.0 mm
03:14 PM 75.2°F24.0°C 48.9°F9.4°C 29% 5.2 mph SE8.4 kmh SE 5.2 mph8.4 kmh 30.01 in1016.3 mb 0.00 in0.0 mm 0.00 in0.0 mm 0.00 in0.0 mm
03:17 PM 74.4°F23.6°C 47.6°F8.7°C 29% 8.9 mph ESE14.3 kmh ESE 9.0 mph14.5 kmh 30.01 in1016.3 mb 0.00 in0.0 mm 0.00 in0.0 mm 0.00 in0.0 mm
03:20 PM 75.0°F23.9°C 49.4°F9.7°C 30% 3.6 mph NNW5.8 kmh NNW 3.6 mph5.8 kmh 30.00 in1015.9 mb 0.00 in0.0 mm 0.00 in0.0 mm 0.00 in0.0 mm
03:23 PM 75.0°F23.9°C 48.7°F9.3°C 29% 11.7 mph E18.8 kmh E 11.8 mph19.0 kmh 30.01 in1016.3 mb 0.00 in0.0 mm 0.00 in0.0 mm 0.00 in0.0 mm
03:26 PM 74.3°F23.5°C 49.1°F9.5°C 30% 12.1 mph ESE19.5 kmh ESE 12.2 mph19.6 kmh 30.01 in1016.3 mb 0.00 in0.0 mm 0.00 in0.0 mm 0.00 in0.0 mm
03:29 PM 74.6°F23.7°C 48.2°F9.0°C 29% 7.3 mph ESE11.7 kmh ESE 7.3 mph11.7 kmh 30.01 in1016.3 mb 0.00 in0.0 mm 0.00 in0.0 mm 0.00 in0.0 mm
03:32 PM 75.2°F24.0°C 48.0°F8.9°C 29% 7.9 mph E12.7 kmh E 8.0 mph12.9 kmh 30.01 in1016.3 mb 0.00 in0.0 mm 0.00 in0.0 mm 0.00 in0.0 mm
03:35 PM 75.9°F24.4°C 49.3°F9.6°C 29% 2.0 mph E3.2 kmh E 2.0 mph3.2 kmh 30.00 in1015.9 mb 0.00 in0.0 mm 0.00 in0.0 mm 0.00 in0.0 mm
03:38 PM 75.3°F24.1°C 49.8°F9.9°C 30% 4.4 mph SE7.1 kmh SE 4.4 mph7.1 kmh 30.00 in1015.9 mb 0.00 in0.0 mm 0.00 in0.0 mm 0.00 in0.0 mm
03:41 PM 75.0°F23.9°C 48.8°F9.3°C 29% 8.8 mph NNW14.2 kmh NNW 8.8 mph14.2 kmh 30.01 in1016.3 mb 0.00 in0.0 mm 0.00 in0.0 mm 0.00 in0.0 mm
03:44 PM 75.3°F24.1°C 49.2°F9.6°C 30% 8.5 mph ESE13.7 kmh ESE 8.5 mph13.7 kmh 30.01 in1016.3 mb 0.00 in0.0 mm 0.00 in0.0 mm 0.00 in0.0 mm
03:50 PM 75.2°F24.0°C 48.5°F9.2°C 29% 6.5 mph SE10.5 kmh SE 6.5 mph10.5 kmh 30.00 in1015.9 mb 0.00 in0.0 mm 0.00 in0.0 mm 0.00 in0.0 mm
03:53 PM 75.0°F23.9°C 48.0°F8.9°C 29% 13.0 mph SE20.9 kmh SE 13.1 mph21.1 kmh 30.01 in1016.3 mb 0.00 in0.0 mm 0.00 in0.0 mm 0.00 in0.0 mm
03:56 PM 75.1°F23.9°C 47.1°F8.4°C 28% 8.4 mph SE13.5 kmh SE 8.4 mph13.5 kmh 30.01 in1016.3 mb 0.00 in0.0 mm 0.00 in0.0 mm 0.00 in0.0 mm
03:59 PM 76.3°F24.6°C 47.7°F8.7°C 29% 11.9 mph NNW19.2 kmh NNW 12.0 mph19.3 kmh 30.01 in1016.3 mb 0.00 in0.0 mm 0.00 in0.0 mm 0.00 in0.0 mm
04:02 PM 75.9°F24.4°C 47.0°F8.3°C 28% 2.0 mph NE3.2 kmh NE 2.0 mph3.2 kmh 30.01 in1016.3 mb 0.00 in0.0 mm 0.00 in0.0 mm 0.00 in0.0 mm
04:08 PM 76.4°F24.7°C 47.9°F8.8°C 29% 9.7 mph SE15.6 kmh SE 9.8 mph15.8 kmh 30.01 in1016.3 mb 0.00 in0.0 mm 0.00 in0.0 mm 0.00 in0.0 mm
04:11 PM 76.8°F24.9°C 48.5°F9.2°C 29% 4.0 mph SE6.4 kmh SE 4.1 mph6.6 kmh 30.01 in1016.3 mb 0.00 in0.0 mm 0.00 in0.0 mm 0.00 in0.0 mm
04:14 PM 76.6°F24.8°C 49.0°F9.4°C 30% 12.9 mph SE20.8 kmh SE 13.1 mph21.1 kmh 30.01 in1016.3 mb 0.00 in0.0 mm 0.00 in0.0 mm 0.00 in0.0 mm
04:17 PM 76.2°F24.6°C 48.9°F9.4°C 30% 3.6 mph NNW5.8 kmh NNW 3.7 mph6.0 kmh 30.01 in1016.3 mb 0.00 in0.0 mm 0.00 in0.0 mm 0.00 in0.0 mm
04:23 PM 75.3°F24.1°C 47.7°F8.7°C 30% 6.1 mph NNW9.8 kmh NNW 6.1 mph9.8 kmh 30.00 in1015.9 mb 0.00 in0.0 mm 0.00 in0.0 mm 0.00 in0.0 mm
04:26 PM 77.8°F25.4°C 49.9°F9.9°C 32% 1.6 mph E2.6 kmh E 1.6 mph2.6 kmh 30.01 in1016.3 mb 0.00 in0.0 mm 0.00 in0.0 mm 0.00 in0.0 mm
04:29 PM 76.1°F24.5°C 47.3°F8.5°C 29% 4.8 mph ESE7.7 kmh ESE 4.9 mph7.9 kmh 30.00 in1015.9 mb 0.00 in0.0 mm 0.00 in0.0 mm 0.00 in0.0 mm
04:32 PM 76.7°F24.8°C 49.7°F9.8°C 31% 4.0 mph E6.4 kmh E 4.1 mph6.6 kmh 30.01 in1016.3 mb 0.00 in0.0 mm 0.00 in0.0 mm 0.00 in0.0 mm
04:35 PM 76.6°F24.8°C 47.9°F8.8°C 29% 9.3 mph NNW15.0 kmh NNW 9.4 mph15.1 kmh 30.01 in1016.3 mb 0.00 in0.0 mm 0.00 in0.0 mm 0.00 in0.0 mm
04:38 PM 76.3°F24.6°C 49.0°F9.4°C 30% 12.3 mph NNW19.8 kmh NNW 12.3 mph19.8 kmh 30.01 in1016.3 mb 0.00 in0.0 mm 0.00 in0.0 mm 0.00 in0.0 mm
04:41 PM 76.7°F24.8°C 48.7°F9.3°C 30% 3.2 mph NNW5.1 kmh NNW 3.2 mph5.1 kmh 30.00 in1015.9 mb 0.00 in0.0 mm 0.00 in0.0 mm 0.00 in0.0 mm
04:44 PM 77.3°F25.2°C 48.7°F9.3°C 31% 4.0 mph NNW6.4 kmh NNW 4.1 mph6.6 kmh 30.01 in1016.3 mb 0.00 in0.0 mm 0.00 in0.0 mm 0.00 in0.0 mm
04:47 PM 77.8°F25.4°C 50.1°F10.1°C 32% 1.6 mph E2.6 kmh E 1.6 mph2.6 kmh 30.01 in1016.3 mb 0.00 in0.0 mm 0.00 in0.0 mm 0.00 in0.0 mm
04:50 PM 76.3°F24.6°C 48.5°F9.2°C 30% 6.1 mph SE9.8 kmh SE 6.1 mph9.8 kmh 30.01 in1016.3 mb 0.00 in0.0 mm 0.00 in0.0 mm 0.00 in0.0 mm
04:53 PM 75.9°F24.4°C 48.0°F8.9°C 30% 7.6 mph ESE12.2 kmh ESE 7.6 mph12.2 kmh 30.02 in1016.6 mb 0.00 in0.0 mm 0.00 in0.0 mm 0.00 in0.0 mm
04:56 PM 75.2°F24.0°C 45.6°F7.6°C 28% 14.5 mph ESE23.3 kmh ESE 14.7 mph23.7 kmh 30.01 in1016.3 mb 0.00 in0.0 mm 0.00 in0.0 mm 0.00 in0.0 mm
04:59 PM 75.4°F24.1°C 46.3°F7.9°C 29% 8.7 mph ESE14.0 kmh ESE 8.7 mph14.0 kmh 30.01 in1016.3 mb 0.00 in0.0 mm 0.00 in0.0 mm 0.00 in0.0 mm
05:02 PM 74.8°F23.8°C 46.3°F7.9°C 30% 7.9 mph SE12.7 kmh SE 8.0 mph12.9 kmh 30.02 in1016.6 mb 0.00 in0.0 mm 0.00 in0.0 mm 0.00 in0.0 mm
05:05 PM 75.3°F24.1°C 47.3°F8.5°C 30% 10.1 mph ESE16.3 kmh ESE 10.2 mph16.4 kmh 30.02 in1016.6 mb 0.00 in0.0 mm 0.00 in0.0 mm 0.00 in0.0 mm
05:11 PM 75.7°F24.3°C 46.1°F7.8°C 29% 9.1 mph SE14.6 kmh SE 9.2 mph14.8 kmh 30.02 in1016.6 mb 0.00 in0.0 mm 0.00 in0.0 mm 0.00 in0.0 mm
05:20 PM 74.2°F23.4°C 46.8°F8.2°C 30% 8.1 mph NNW13.0 kmh NNW 8.1 mph13.0 kmh 30.02 in1016.6 mb 0.00 in0.0 mm 0.00 in0.0 mm 0.00 in0.0 mm
05:23 PM 73.9°F23.3°C 47.2°F8.4°C 30% 7.6 mph SE12.2 kmh SE 7.6 mph12.2 kmh 30.02 in1016.6 mb 0.00 in0.0 mm 0.00 in0.0 mm 0.00 in0.0 mm
05:26 PM 74.2°F23.4°C 48.1°F8.9°C 32% 9.3 mph ESE15.0 kmh ESE 9.3 mph15.0 kmh 30.01 in1016.3 mb 0.00 in0.0 mm 0.00 in0.0 mm 0.00 in0.0 mm
05:32 PM 73.5°F23.1°C 47.2°F8.4°C 31% 10.3 mph ESE16.6 kmh ESE 10.4 mph16.7 kmh 30.01 in1016.3 mb 0.00 in0.0 mm 0.00 in0.0 mm 0.00 in0.0 mm
05:35 PM 73.5°F23.1°C 47.4°F8.6°C 32% 11.3 mph SE18.2 kmh SE 11.4 mph18.3 kmh 30.01 in1016.3 mb 0.00 in0.0 mm 0.00 in0.0 mm 0.00 in0.0 mm
05:38 PM 74.0°F23.3°C 46.6°F8.1°C 31% 6.5 mph ESE10.5 kmh ESE 6.5 mph10.5 kmh 30.01 in1016.3 mb 0.00 in0.0 mm 0.00 in0.0 mm 0.00 in0.0 mm
05:41 PM 74.8°F23.8°C 46.8°F8.2°C 30% 6.0 mph ESE9.7 kmh ESE 6.0 mph9.7 kmh 30.02 in1016.6 mb 0.00 in0.0 mm 0.00 in0.0 mm 0.00 in0.0 mm
05:44 PM 73.2°F22.9°C 47.0°F8.3°C 31% 9.9 mph SE15.9 kmh SE 10.0 mph16.1 kmh 30.01 in1016.3 mb 0.00 in0.0 mm 0.00 in0.0 mm 0.00 in0.0 mm
05:47 PM 73.3°F22.9°C 47.2°F8.4°C 32% 6.0 mph NNW9.7 kmh NNW 6.1 mph9.8 kmh 30.01 in1016.3 mb 0.00 in0.0 mm 0.00 in0.0 mm 0.00 in0.0 mm
05:50 PM 73.3°F22.9°C 46.9°F8.3°C 32% 6.1 mph SE9.8 kmh SE 6.1 mph9.8 kmh 30.01 in1016.3 mb 0.00 in0.0 mm 0.00 in0.0 mm 0.00 in0.0 mm
05:53 PM 73.0°F22.8°C 46.7°F8.2°C 32% 8.8 mph NNW14.2 kmh NNW 8.8 mph14.2 kmh 30.01 in1016.3 mb 0.00 in0.0 mm 0.00 in0.0 mm 0.00 in0.0 mm
05:56 PM 73.5°F23.1°C 46.6°F8.1°C 31% 7.5 mph ESE12.1 kmh ESE 7.6 mph12.2 kmh 30.02 in1016.6 mb 0.00 in0.0 mm 0.00 in0.0 mm 0.00 in0.0 mm
05:59 PM 72.8°F22.7°C 46.9°F8.3°C 31% 3.2 mph SE5.1 kmh SE 3.2 mph5.1 kmh 30.02 in1016.6 mb 0.00 in0.0 mm 0.00 in0.0 mm 0.00 in0.0 mm
06:02 PM 72.5°F22.5°C 47.8°F8.8°C 32% 6.9 mph SE11.1 kmh SE 6.9 mph11.1 kmh 30.02 in1016.6 mb 0.00 in0.0 mm 0.00 in0.0 mm 0.00 in0.0 mm
06:05 PM 72.3°F22.4°C 45.7°F7.6°C 31% 5.7 mph ESE9.2 kmh ESE 5.7 mph9.2 kmh 30.02 in1016.6 mb 0.00 in0.0 mm 0.00 in0.0 mm 0.00 in0.0 mm
06:11 PM 71.7°F22.1°C 46.6°F8.1°C 32% 4.1 mph NNW6.6 kmh NNW 4.1 mph6.6 kmh 30.02 in1016.6 mb 0.00 in0.0 mm 0.00 in0.0 mm 0.00 in0.0 mm
06:14 PM 71.8°F22.1°C 47.0°F8.3°C 32% 4.0 mph SE6.4 kmh SE 4.1 mph6.6 kmh 30.02 in1016.6 mb 0.00 in0.0 mm 0.00 in0.0 mm 0.00 in0.0 mm
06:17 PM 71.7°F22.1°C 48.7°F9.3°C 34% 6.9 mph SE11.1 kmh SE 6.9 mph11.1 kmh 30.02 in1016.6 mb 0.00 in0.0 mm 0.00 in0.0 mm 0.00 in0.0 mm
06:20 PM 70.7°F21.5°C 47.4°F8.6°C 33% 9.7 mph SE15.6 kmh SE 9.7 mph15.6 kmh 30.02 in1016.6 mb 0.00 in0.0 mm 0.00 in0.0 mm 0.00 in0.0 mm
06:23 PM 70.5°F21.4°C 46.5°F8.1°C 33% 6.0 mph ESE9.7 kmh ESE 6.1 mph9.8 kmh 30.02 in1016.6 mb 0.00 in0.0 mm 0.00 in0.0 mm 0.00 in0.0 mm
06:26 PM 70.0°F21.1°C 46.8°F8.2°C 33% 11.5 mph E18.5 kmh E 11.6 mph18.7 kmh 30.02 in1016.6 mb 0.00 in0.0 mm 0.00 in0.0 mm 0.00 in0.0 mm
06:29 PM 69.9°F21.1°C 47.2°F8.4°C 34% 4.4 mph NNW7.1 kmh NNW 4.4 mph7.1 kmh 30.02 in1016.6 mb 0.00 in0.0 mm 0.00 in0.0 mm 0.00 in0.0 mm
06:32 PM 70.4°F21.3°C 46.6°F8.1°C 33% 4.0 mph NNW6.4 kmh NNW 4.0 mph6.4 kmh 30.02 in1016.6 mb 0.00 in0.0 mm 0.00 in0.0 mm 0.00 in0.0 mm
06:35 PM 70.9°F21.6°C 47.6°F8.7°C 34% 10.8 mph NNW17.4 kmh NNW 10.9 mph17.5 kmh 30.02 in1016.6 mb 0.00 in0.0 mm 0.00 in0.0 mm 0.00 in0.0 mm
06:38 PM 69.6°F20.9°C 47.7°F8.7°C 33% 4.9 mph ESE7.9 kmh ESE 4.9 mph7.9 kmh 30.02 in1016.6 mb 0.00 in0.0 mm 0.00 in0.0 mm 0.00 in0.0 mm
06:41 PM 69.1°F20.6°C 47.1°F8.4°C 34% 8.5 mph SE13.7 kmh SE 8.6 mph13.8 kmh 30.02 in1016.6 mb 0.00 in0.0 mm 0.00 in0.0 mm 0.00 in0.0 mm
06:44 PM 69.5°F20.8°C 47.0°F8.3°C 34% 2.4 mph ESE3.9 kmh ESE 2.4 mph3.9 kmh 30.02 in1016.6 mb 0.00 in0.0 mm 0.00 in0.0 mm 0.00 in0.0 mm
06:47 PM 69.5°F20.8°C 48.5°F9.2°C 35% 1.6 mph E2.6 kmh E 1.6 mph2.6 kmh 30.02 in1016.6 mb 0.00 in0.0 mm 0.00 in0.0 mm 0.00 in0.0 mm
06:50 PM 68.7°F20.4°C 47.1°F8.4°C 34% 5.2 mph ESE8.4 kmh ESE 5.3 mph8.5 kmh 30.03 in1016.9 mb 0.00 in0.0 mm 0.00 in0.0 mm 0.00 in0.0 mm
06:56 PM 68.1°F20.1°C 47.6°F8.7°C 35% 2.4 mph ESE3.9 kmh ESE 2.4 mph3.9 kmh 30.02 in1016.6 mb 0.00 in0.0 mm 0.00 in0.0 mm 0.00 in0.0 mm
06:59 PM 67.9°F19.9°C 46.7°F8.2°C 35% 5.6 mph NNW9.0 kmh NNW 5.6 mph9.0 kmh 30.02 in1016.6 mb 0.00 in0.0 mm 0.00 in0.0 mm 0.00 in0.0 mm
07:02 PM 68.2°F20.1°C 46.8°F8.2°C 35% 2.8 mph SE4.5 kmh SE 2.8 mph4.5 kmh 30.03 in1016.9 mb 0.00 in0.0 mm 0.00 in0.0 mm 0.00 in0.0 mm
07:05 PM 67.8°F19.9°C 46.8°F8.2°C 34% 2.4 mph E3.9 kmh E 2.4 mph3.9 kmh 30.03 in1016.9 mb 0.00 in0.0 mm 0.00 in0.0 mm 0.00 in0.0 mm
07:08 PM 67.9°F19.9°C 46.9°F8.3°C 34% 0.8 mph SE1.3 kmh SE 0.8 mph1.3 kmh 30.03 in1016.9 mb 0.00 in0.0 mm 0.00 in0.0 mm 0.00 in0.0 mm
07:11 PM 67.4°F19.7°C 46.4°F8.0°C 34% 4.6 mph SE7.4 kmh SE 4.7 mph7.6 kmh 30.03 in1016.9 mb 0.00 in0.0 mm 0.00 in0.0 mm 0.00 in0.0 mm
07:17 PM 67.2°F19.6°C 46.9°F8.3°C 35% 2.3 mph E3.7 kmh E 2.3 mph3.7 kmh 30.03 in1016.9 mb 0.00 in0.0 mm 0.00 in0.0 mm 0.00 in0.0 mm
07:20 PM 66.8°F19.3°C 46.7°F8.2°C 35% 2.7 mph NNW4.3 kmh NNW 2.7 mph4.3 kmh 30.03 in1016.9 mb 0.00 in0.0 mm 0.00 in0.0 mm 0.00 in0.0 mm
07:23 PM 66.8°F19.3°C 47.0°F8.3°C 36% 4.0 mph E6.4 kmh E 4.0 mph6.4 kmh 30.03 in1016.9 mb 0.00 in0.0 mm 0.00 in0.0 mm 0.00 in0.0 mm
07:26 PM 66.4°F19.1°C 47.3°F8.5°C 36% 2.0 mph ENE3.2 kmh ENE 2.0 mph3.2 kmh 30.03 in1016.9 mb 0.00 in0.0 mm 0.00 in0.0 mm 0.00 in0.0 mm
07:29 PM 66.0°F18.9°C 46.2°F7.9°C 35% 4.0 mph SSE6.4 kmh SSE 4.0 mph6.4 kmh 30.03 in1016.9 mb 0.00 in0.0 mm 0.00 in0.0 mm 0.00 in0.0 mm
07:32 PM 65.8°F18.8°C 46.8°F8.2°C 36% 6.1 mph NNW9.8 kmh NNW 6.1 mph9.8 kmh 30.03 in1016.9 mb 0.00 in0.0 mm 0.00 in0.0 mm 0.00 in0.0 mm
07:35 PM 65.5°F18.6°C 46.3°F7.9°C 36% 6.5 mph ESE10.5 kmh ESE 6.5 mph10.5 kmh 30.03 in1016.9 mb 0.00 in0.0 mm 0.00 in0.0 mm 0.00 in0.0 mm
07:38 PM 65.4°F18.6°C 47.4°F8.6°C 36% 4.9 mph NNW7.9 kmh NNW 4.9 mph7.9 kmh 30.03 in1016.9 mb 0.00 in0.0 mm 0.00 in0.0 mm 0.00 in0.0 mm
07:41 PM 65.1°F18.4°C 47.4°F8.6°C 37% 3.6 mph ESE5.8 kmh ESE 3.6 mph5.8 kmh 30.03 in1016.9 mb 0.00 in0.0 mm 0.00 in0.0 mm 0.00 in0.0 mm
07:44 PM 64.7°F18.2°C 47.9°F8.8°C 38% 3.2 mph ESE5.1 kmh ESE 3.3 mph5.3 kmh 30.03 in1016.9 mb 0.00 in0.0 mm 0.00 in0.0 mm 0.00 in0.0 mm
07:47 PM 64.6°F18.1°C 47.4°F8.6°C 37% 6.0 mph SE9.7 kmh SE 6.0 mph9.7 kmh 30.03 in1016.9 mb 0.00 in0.0 mm 0.00 in0.0 mm 0.00 in0.0 mm
07:50 PM 64.4°F18.0°C 46.7°F8.2°C 37% 4.8 mph SE7.7 kmh SE 4.9 mph7.9 kmh 30.03 in1016.9 mb 0.00 in0.0 mm 0.00 in0.0 mm 0.00 in0.0 mm
07:53 PM 64.3°F17.9°C 46.5°F8.1°C 37% 7.3 mph NNW11.7 kmh NNW 7.3 mph11.7 kmh 30.03 in1016.9 mb 0.00 in0.0 mm 0.00 in0.0 mm 0.00 in0.0 mm
07:56 PM 64.1°F17.8°C 47.2°F8.4°C 38% 5.6 mph NNW9.0 kmh NNW 5.7 mph9.2 kmh 30.03 in1016.9 mb 0.00 in0.0 mm 0.00 in0.0 mm 0.00 in0.0 mm
07:59 PM 64.0°F17.8°C 46.5°F8.1°C 38% 10.3 mph NNW16.6 kmh NNW 10.4 mph16.7 kmh 30.03 in1016.9 mb 0.00 in0.0 mm 0.00 in0.0 mm 0.00 in0.0 mm
08:05 PM 63.7°F17.6°C 46.1°F7.8°C 38% 7.5 mph SE12.1 kmh SE 7.6 mph12.2 kmh 30.03 in1016.9 mb 0.00 in0.0 mm 0.00 in0.0 mm 0.00 in0.0 mm
08:08 PM 63.6°F17.6°C 45.8°F7.7°C 38% 4.0 mph SE6.4 kmh SE 4.0 mph6.4 kmh 30.03 in1016.9 mb 0.00 in0.0 mm 0.00 in0.0 mm 0.00 in0.0 mm
08:11 PM 63.3°F17.4°C 46.0°F7.8°C 38% 4.9 mph SE7.9 kmh SE 4.9 mph7.9 kmh 30.03 in1016.9 mb 0.00 in0.0 mm 0.00 in0.0 mm 0.00 in0.0 mm
08:14 PM 62.8°F17.1°C 46.0°F7.8°C 38% 7.1 mph SE11.4 kmh SE 7.2 mph11.6 kmh 30.03 in1016.9 mb 0.00 in0.0 mm 0.00 in0.0 mm 0.00 in0.0 mm
08:17 PM 62.5°F16.9°C 46.9°F8.3°C 40% 8.3 mph NNW13.4 kmh NNW 8.4 mph13.5 kmh 30.03 in1016.9 mb 0.00 in0.0 mm 0.00 in0.0 mm 0.00 in0.0 mm
08:20 PM 62.4°F16.9°C 46.7°F8.2°C 39% 6.0 mph SE9.7 kmh SE 6.0 mph9.7 kmh 30.03 in1016.9 mb 0.00 in0.0 mm 0.00 in0.0 mm 0.00 in0.0 mm
08:23 PM 62.2°F16.8°C 47.0°F8.3°C 40% 2.4 mph E3.9 kmh E 2.4 mph3.9 kmh 30.03 in1016.9 mb 0.00 in0.0 mm 0.00 in0.0 mm 0.00 in0.0 mm
08:26 PM 62.2°F16.8°C 46.2°F7.9°C 39% 5.6 mph ESE9.0 kmh ESE 5.7 mph9.2 kmh 30.03 in1016.9 mb 0.00 in0.0 mm 0.00 in0.0 mm 0.00 in0.0 mm
08:29 PM 62.0°F16.7°C 46.5°F8.1°C 40% 4.4 mph NNW7.1 kmh NNW 4.5 mph7.2 kmh 30.03 in1016.9 mb 0.00 in0.0 mm 0.00 in0.0 mm 0.00 in0.0 mm
08:35 PM 61.5°F16.4°C 46.6°F8.1°C 40% 4.0 mph ESE6.4 kmh ESE 4.0 mph6.4 kmh 30.03 in1016.9 mb 0.00 in0.0 mm 0.00 in0.0 mm 0.00 in0.0 mm
08:38 PM 61.7°F16.5°C 46.2°F7.9°C 40% 9.1 mph NNW14.6 kmh NNW 9.2 mph14.8 kmh 30.03 in1016.9 mb 0.00 in0.0 mm 0.00 in0.0 mm 0.00 in0.0 mm
08:41 PM 61.3°F16.3°C 46.6°F8.1°C 41% 2.4 mph ESE3.9 kmh ESE 2.4 mph3.9 kmh 30.04 in1017.3 mb 0.00 in0.0 mm 0.00 in0.0 mm 0.00 in0.0 mm
08:44 PM 61.3°F16.3°C 47.0°F8.3°C 42% 1.2 mph NNW1.9 kmh NNW 1.2 mph1.9 kmh 30.03 in1016.9 mb 0.00 in0.0 mm 0.00 in0.0 mm 0.00 in0.0 mm
08:47 PM 61.4°F16.3°C 46.4°F8.0°C 41% 10.9 mph SE17.5 kmh SE 11.0 mph17.7 kmh 30.04 in1017.3 mb 0.00 in0.0 mm 0.00 in0.0 mm 0.00 in0.0 mm
08:50 PM 61.3°F16.3°C 46.5°F8.1°C 42% 4.4 mph NNW7.1 kmh NNW 4.5 mph7.2 kmh 30.04 in1017.3 mb 0.00 in0.0 mm 0.00 in0.0 mm 0.00 in0.0 mm
08:53 PM 61.1°F16.2°C 46.5°F8.1°C 42% 5.6 mph ESE9.0 kmh ESE 5.6 mph9.0 kmh 30.04 in1017.3 mb 0.00 in0.0 mm 0.00 in0.0 mm 0.00 in0.0 mm
08:56 PM 61.0°F16.1°C 46.3°F7.9°C 42% 5.3 mph ESE8.5 kmh ESE 5.3 mph8.5 kmh 30.04 in1017.3 mb 0.00 in0.0 mm 0.00 in0.0 mm 0.00 in0.0 mm
08:59 PM 60.9°F16.1°C 46.6°F8.1°C 42% 3.6 mph ESE5.8 kmh ESE 3.6 mph5.8 kmh 30.04 in1017.3 mb 0.00 in0.0 mm 0.00 in0.0 mm 0.00 in0.0 mm
09:02 PM 60.8°F16.0°C 46.4°F8.0°C 42% 6.0 mph NNW9.7 kmh NNW 6.0 mph9.7 kmh 30.05 in1017.6 mb 0.00 in0.0 mm 0.00 in0.0 mm 0.00 in0.0 mm
09:05 PM 60.5°F15.8°C 46.7°F8.2°C 42% 4.8 mph NNW7.7 kmh NNW 4.9 mph7.9 kmh 30.05 in1017.6 mb 0.00 in0.0 mm 0.00 in0.0 mm 0.00 in0.0 mm
09:08 PM 60.8°F16.0°C 45.9°F7.7°C 42% 8.9 mph SE14.3 kmh SE 8.9 mph14.3 kmh 30.05 in1017.6 mb 0.00 in0.0 mm 0.00 in0.0 mm 0.00 in0.0 mm
09:11 PM 60.4°F15.8°C 46.0°F7.8°C 42% 6.9 mph SE11.1 kmh SE 6.9 mph11.1 kmh 30.05 in1017.6 mb 0.00 in0.0 mm 0.00 in0.0 mm 0.00 in0.0 mm
09:14 PM 60.4°F15.8°C 46.2°F7.9°C 43% 9.3 mph ESE15.0 kmh ESE 9.3 mph15.0 kmh 30.05 in1017.6 mb 0.00 in0.0 mm 0.00 in0.0 mm 0.00 in0.0 mm
09:17 PM 60.1°F15.6°C 46.3°F7.9°C 43% 3.2 mph NNW5.1 kmh NNW 3.3 mph5.3 kmh 30.05 in1017.6 mb 0.00 in0.0 mm 0.00 in0.0 mm 0.00 in0.0 mm
09:20 PM 60.1°F15.6°C 46.2°F7.9°C 43% 4.4 mph NNW7.1 kmh NNW 4.5 mph7.2 kmh 30.05 in1017.6 mb 0.00 in0.0 mm 0.00 in0.0 mm 0.00 in0.0 mm
09:23 PM 60.0°F15.6°C 46.2°F7.9°C 43% 4.8 mph ESE7.7 kmh ESE 4.9 mph7.9 kmh 30.05 in1017.6 mb 0.00 in0.0 mm 0.00 in0.0 mm 0.00 in0.0 mm
09:26 PM 59.9°F15.5°C 46.2°F7.9°C 43% 6.1 mph SE9.8 kmh SE 6.1 mph9.8 kmh 30.05 in1017.6 mb 0.00 in0.0 mm 0.00 in0.0 mm 0.00 in0.0 mm
09:29 PM 60.0°F15.6°C 46.3°F7.9°C 43% 9.1 mph SE14.6 kmh SE 9.2 mph14.8 kmh 30.05 in1017.6 mb 0.00 in0.0 mm 0.00 in0.0 mm 0.00 in0.0 mm
09:32 PM 59.9°F15.5°C 46.1°F7.8°C 44% 5.2 mph ESE8.4 kmh ESE 5.2 mph8.4 kmh 30.05 in1017.6 mb 0.00 in0.0 mm 0.00 in0.0 mm 0.00 in0.0 mm
09:35 PM 60.1°F15.6°C 45.7°F7.6°C 44% 7.7 mph ESE12.4 kmh ESE 7.7 mph12.4 kmh 30.05 in1017.6 mb 0.00 in0.0 mm 0.00 in0.0 mm 0.00 in0.0 mm
09:38 PM 60.0°F15.6°C 46.2°F7.9°C 44% 6.1 mph NNW9.8 kmh NNW 6.1 mph9.8 kmh 30.05 in1017.6 mb 0.00 in0.0 mm 0.00 in0.0 mm 0.00 in0.0 mm
09:41 PM 59.7°F15.4°C 46.0°F7.8°C 44% 7.5 mph ESE12.1 kmh ESE 7.6 mph12.2 kmh 30.05 in1017.6 mb 0.00 in0.0 mm 0.00 in0.0 mm 0.00 in0.0 mm
09:44 PM 59.7°F15.4°C 45.7°F7.6°C 44% 6.0 mph NNW9.7 kmh NNW 6.0 mph9.7 kmh 30.05 in1017.6 mb 0.00 in0.0 mm 0.00 in0.0 mm 0.00 in0.0 mm
09:47 PM 59.7°F15.4°C 45.9°F7.7°C 44% 4.0 mph E6.4 kmh E 4.1 mph6.6 kmh 30.06 in1017.9 mb 0.00 in0.0 mm 0.00 in0.0 mm 0.00 in0.0 mm
09:50 PM 59.6°F15.3°C 46.0°F7.8°C 45% 6.3 mph ESE10.1 kmh ESE 6.4 mph10.3 kmh 30.05 in1017.6 mb 0.00 in0.0 mm 0.00 in0.0 mm 0.00 in0.0 mm
09:53 PM 59.5°F15.3°C 45.8°F7.7°C 45% 12.1 mph SE19.5 kmh SE 12.1 mph19.5 kmh 30.05 in1017.6 mb 0.00 in0.0 mm 0.00 in0.0 mm 0.00 in0.0 mm
09:56 PM 59.5°F15.3°C 46.1°F7.8°C 45% 7.7 mph SE12.4 kmh SE 7.7 mph12.4 kmh 30.05 in1017.6 mb 0.00 in0.0 mm 0.00 in0.0 mm 0.00 in0.0 mm
09:59 PM 59.0°F15.0°C 46.2°F7.9°C 45% 5.6 mph ESE9.0 kmh ESE 5.6 mph9.0 kmh 30.06 in1017.9 mb 0.00 in0.0 mm 0.00 in0.0 mm 0.00 in0.0 mm
10:02 PM 59.1°F15.1°C 45.9°F7.7°C 45% 7.5 mph SE12.1 kmh SE 7.6 mph12.2 kmh 30.05 in1017.6 mb 0.00 in0.0 mm 0.00 in0.0 mm 0.00 in0.0 mm
10:05 PM 59.5°F15.3°C 45.9°F7.7°C 45% 9.7 mph E15.6 kmh E 9.7 mph15.6 kmh 30.06 in1017.9 mb 0.00 in0.0 mm 0.00 in0.0 mm 0.00 in0.0 mm
10:08 PM 59.2°F15.1°C 46.2°F7.9°C 46% 6.1 mph NNW9.8 kmh NNW 6.1 mph9.8 kmh 30.06 in1017.9 mb 0.00 in0.0 mm 0.00 in0.0 mm 0.00 in0.0 mm
10:11 PM 58.9°F14.9°C 45.8°F7.7°C 46% 5.2 mph NNW8.4 kmh NNW 5.2 mph8.4 kmh 30.06 in1017.9 mb 0.00 in0.0 mm 0.00 in0.0 mm 0.00 in0.0 mm
10:14 PM 58.9°F14.9°C 45.6°F7.6°C 46% 4.8 mph ESE7.7 kmh ESE 4.9 mph7.9 kmh 30.06 in1017.9 mb 0.00 in0.0 mm 0.00 in0.0 mm 0.00 in0.0 mm
10:17 PM 59.1°F15.1°C 45.5°F7.5°C 46% 9.7 mph ESE15.6 kmh ESE 9.7 mph15.6 kmh 30.06 in1017.9 mb 0.00 in0.0 mm 0.00 in0.0 mm 0.00 in0.0 mm
10:20 PM 58.7°F14.8°C 46.0°F7.8°C 46% 6.9 mph SE11.1 kmh SE 6.9 mph11.1 kmh 30.06 in1017.9 mb 0.00 in0.0 mm 0.00 in0.0 mm 0.00 in0.0 mm
10:23 PM 59.0°F15.0°C 45.5°F7.5°C 46% 9.7 mph NNW15.6 kmh NNW 9.8 mph15.8 kmh 30.06 in1017.9 mb 0.00 in0.0 mm 0.00 in0.0 mm 0.00 in0.0 mm
10:26 PM 58.8°F14.9°C 45.4°F7.4°C 46% 4.4 mph ESE7.1 kmh ESE 4.4 mph7.1 kmh 30.06 in1017.9 mb 0.00 in0.0 mm 0.00 in0.0 mm 0.00 in0.0 mm
10:29 PM 58.3°F14.6°C 46.1°F7.8°C 46% 4.8 mph NNW7.7 kmh NNW 4.8 mph7.7 kmh 30.06 in1017.9 mb 0.00 in0.0 mm 0.00 in0.0 mm 0.00 in0.0 mm
10:32 PM 58.6°F14.8°C 45.7°F7.6°C 47% 6.1 mph ESE9.8 kmh ESE 6.1 mph9.8 kmh 30.07 in1018.3 mb 0.00 in0.0 mm 0.00 in0.0 mm 0.00 in0.0 mm
10:38 PM 58.6°F14.8°C 45.7°F7.6°C 47% 10.1 mph NNW16.3 kmh NNW 10.2 mph16.4 kmh 30.07 in1018.3 mb 0.00 in0.0 mm 0.00 in0.0 mm 0.00 in0.0 mm
10:41 PM 58.7°F14.8°C 45.6°F7.6°C 47% 10.1 mph NNW16.3 kmh NNW 10.2 mph16.4 kmh 30.07 in1018.3 mb 0.00 in0.0 mm 0.00 in0.0 mm 0.00 in0.0 mm
10:44 PM 58.4°F14.7°C 45.8°F7.7°C 47% 9.7 mph NNW15.6 kmh NNW 9.8 mph15.8 kmh 30.06 in1017.9 mb 0.00 in0.0 mm 0.00 in0.0 mm 0.00 in0.0 mm
10:47 PM 58.4°F14.7°C 45.4°F7.4°C 47% 4.0 mph NNE6.4 kmh NNE 4.1 mph6.6 kmh 30.06 in1017.9 mb 0.00 in0.0 mm 0.00 in0.0 mm 0.00 in0.0 mm
10:50 PM 58.4°F14.7°C 45.8°F7.7°C 48% 6.0 mph ESE9.7 kmh ESE 6.0 mph9.7 kmh 30.07 in1018.3 mb 0.00 in0.0 mm 0.00 in0.0 mm 0.00 in0.0 mm
10:53 PM 58.4°F14.7°C 45.8°F7.7°C 48% 7.7 mph E12.4 kmh E 7.7 mph12.4 kmh 30.07 in1018.3 mb 0.00 in0.0 mm 0.00 in0.0 mm 0.00 in0.0 mm
10:56 PM 58.3°F14.6°C 45.5°F7.5°C 48% 8.7 mph ESE14.0 kmh ESE 8.8 mph14.2 kmh 30.07 in1018.3 mb 0.00 in0.0 mm 0.00 in0.0 mm 0.00 in0.0 mm
10:59 PM 58.1°F14.5°C 46.1°F7.8°C 48% 4.2 mph NNW6.8 kmh NNW 4.2 mph6.8 kmh 30.07 in1018.3 mb 0.00 in0.0 mm 0.00 in0.0 mm 0.00 in0.0 mm
11:02 PM 58.4°F14.7°C 45.8°F7.7°C 48% 5.9 mph E9.5 kmh E 6.0 mph9.7 kmh 30.07 in1018.3 mb 0.00 in0.0 mm 0.00 in0.0 mm 0.00 in0.0 mm
11:05 PM 58.0°F14.4°C 45.7°F7.6°C 48% 5.7 mph NNW9.2 kmh NNW 5.7 mph9.2 kmh 30.07 in1018.3 mb 0.00 in0.0 mm 0.00 in0.0 mm 0.00 in0.0 mm
11:08 PM 58.3°F14.6°C 45.5°F7.5°C 48% 12.9 mph SE20.8 kmh SE 12.9 mph20.8 kmh 30.07 in1018.3 mb 0.00 in0.0 mm 0.00 in0.0 mm 0.00 in0.0 mm
11:11 PM 57.8°F14.3°C 45.8°F7.7°C 48% 3.2 mph SE5.1 kmh SE 3.2 mph5.1 kmh 30.07 in1018.3 mb 0.00 in0.0 mm 0.00 in0.0 mm 0.00 in0.0 mm
11:14 PM 58.0°F14.4°C 45.6°F7.6°C 48% 12.1 mph ESE19.5 kmh ESE 12.2 mph19.6 kmh 30.07 in1018.3 mb 0.00 in0.0 mm 0.00 in0.0 mm 0.00 in0.0 mm
11:17 PM 57.9°F14.4°C 45.6°F7.6°C 48% 6.3 mph ESE10.1 kmh ESE 6.4 mph10.3 kmh 30.07 in1018.3 mb 0.00 in0.0 mm 0.00 in0.0 mm 0.00 in0.0 mm
11:20 PM 57.7°F14.3°C 46.0°F7.8°C 48% 5.7 mph ESE9.2 kmh ESE 5.7 mph9.2 kmh 30.07 in1018.3 mb 0.00 in0.0 mm 0.00 in0.0 mm 0.00 in0.0 mm
11:23 PM 57.5°F14.2°C 45.8°F7.7°C 48% 2.0 mph SE3.2 kmh SE 2.0 mph3.2 kmh 30.07 in1018.3 mb 0.00 in0.0 mm 0.00 in0.0 mm 0.00 in0.0 mm
11:26 PM 57.9°F14.4°C 45.4°F7.4°C 48% 8.1 mph ESE13.0 kmh ESE 8.1 mph13.0 kmh 30.07 in1018.3 mb 0.00 in0.0 mm 0.00 in0.0 mm 0.00 in0.0 mm
11:29 PM 57.4°F14.1°C 45.5°F7.5°C 48% 3.6 mph E5.8 kmh E 3.6 mph5.8 kmh 30.07 in1018.3 mb 0.00 in0.0 mm 0.00 in0.0 mm 0.00 in0.0 mm
11:35 PM 58.0°F14.4°C 45.3°F7.4°C 48% 8.7 mph ESE14.0 kmh ESE 8.7 mph14.0 kmh 30.07 in1018.3 mb 0.00 in0.0 mm 0.00 in0.0 mm 0.00 in0.0 mm
11:38 PM 57.7°F14.3°C 45.4°F7.4°C 48% 7.7 mph SE12.4 kmh SE 7.7 mph12.4 kmh 30.07 in1018.3 mb 0.00 in0.0 mm 0.00 in0.0 mm 0.00 in0.0 mm
11:41 PM 57.8°F14.3°C 45.4°F7.4°C 48% 5.3 mph SE8.5 kmh SE 5.3 mph8.5 kmh 30.07 in1018.3 mb 0.00 in0.0 mm 0.00 in0.0 mm 0.00 in0.0 mm
11:44 PM 57.5°F14.2°C 45.8°F7.7°C 49% 5.5 mph SE8.9 kmh SE 5.6 mph9.0 kmh 30.07 in1018.3 mb 0.00 in0.0 mm 0.00 in0.0 mm 0.00 in0.0 mm
11:47 PM 57.1°F13.9°C 45.4°F7.4°C 48% 5.9 mph NNW9.5 kmh NNW 6.0 mph9.7 kmh 30.07 in1018.3 mb 0.00 in0.0 mm 0.00 in0.0 mm 0.00 in0.0 mm
11:50 PM 57.1°F13.9°C 45.3°F7.4°C 48% 5.7 mph ESE9.2 kmh ESE 5.7 mph9.2 kmh 30.07 in1018.3 mb 0.00 in0.0 mm 0.00 in0.0 mm 0.00 in0.0 mm
11:53 PM 56.6°F13.7°C 45.6°F7.6°C 49% 5.3 mph SE8.5 kmh SE 5.3 mph8.5 kmh 30.07 in1018.3 mb 0.00 in0.0 mm 0.00 in0.0 mm 0.00 in0.0 mm
11:56 PM 57.1°F13.9°C 45.2°F7.3°C 49% 8.5 mph E13.7 kmh E 8.5 mph13.7 kmh 30.07 in1018.3 mb 0.00 in0.0 mm 0.00 in0.0 mm 0.00 in0.0 mm
11:59 PM 56.9°F13.8°C 45.4°F7.4°C 49% 6.1 mph NNW9.8 kmh NNW 6.1 mph9.8 kmh 30.07 in1018.3 mb 0.00 in0.0 mm 0.00 in0.0 mm 0.00 in0.0 mm